﻿<?xml version="1.0" encoding="UTF-8" standalone="no" ?>
<gpx xmlns="http://www.topografix.com/GPX/1/1" creator="CompeGPS" version="1.1" xmlns:xsi="http://www.w3.org/2001/XMLSchema-instance" xsi:schemaLocation="http://www.topografix.com/GPX/1/1 http://www.topografix.com/GPX/1/1/gpx.xsd http://www.garmin.com/xmlschemas/GpxExtensions/v3 http://www.garmin.com/xmlschemas/GpxExtensionsv3.xsd http://www.garmin.com/xmlschemas/TrackPointExtension/v1 http://www.garmin.com/xmlschemas/TrackPointExtensionv1.xsd" xmlns:gpxtpx="http://www.garmin.com/xmlschemas/TrackPointExtension/v1">
  <metadata>
    <link href="http://www.compegps.com">
      <text>CompeGPS TEAM, SL</text>
    </link>
    <time>2015-08-25T16:43:47Z</time>
    <bounds maxlat="43.858566" maxlon="1.734874" minlat="43.833336" minlon="1.717963"/>
  </metadata>
  <trk>
    <name>Rabastens</name>
    <trkseg>
      <trkpt lat="43.833543" lon="1.724263">
        <ele>132.4</ele>
        <time>2015-08-25T08:11:08Z</time>
      </trkpt>
      <trkpt lat="43.833441" lon="1.724213">
        <ele>133.7</ele>
        <time>2015-08-25T08:11:29Z</time>
      </trkpt>
      <trkpt lat="43.833380" lon="1.724126">
        <ele>132.9</ele>
        <time>2015-08-25T08:11:33Z</time>
      </trkpt>
      <trkpt lat="43.833336" lon="1.724010">
        <ele>132.3</ele>
        <time>2015-08-25T08:11:39Z</time>
      </trkpt>
      <trkpt lat="43.833349" lon="1.723976">
        <ele>133.1</ele>
        <time>2015-08-25T08:11:47Z</time>
      </trkpt>
      <trkpt lat="43.833404" lon="1.724080">
        <ele>133.4</ele>
        <time>2015-08-25T08:11:52Z</time>
      </trkpt>
      <trkpt lat="43.833500" lon="1.724114">
        <ele>133.7</ele>
        <time>2015-08-25T08:11:55Z</time>
      </trkpt>
      <trkpt lat="43.833613" lon="1.724173">
        <ele>134.2</ele>
        <time>2015-08-25T08:11:58Z</time>
      </trkpt>
      <trkpt lat="43.833737" lon="1.724241">
        <ele>134.0</ele>
        <time>2015-08-25T08:12:01Z</time>
      </trkpt>
      <trkpt lat="43.833821" lon="1.724299">
        <ele>133.7</ele>
        <time>2015-08-25T08:12:03Z</time>
      </trkpt>
      <trkpt lat="43.833913" lon="1.724360">
        <ele>133.1</ele>
        <time>2015-08-25T08:12:05Z</time>
      </trkpt>
      <trkpt lat="43.834002" lon="1.724426">
        <ele>132.8</ele>
        <time>2015-08-25T08:12:07Z</time>
      </trkpt>
      <trkpt lat="43.834084" lon="1.724494">
        <ele>133.5</ele>
        <time>2015-08-25T08:12:09Z</time>
      </trkpt>
      <trkpt lat="43.834166" lon="1.724548">
        <ele>133.9</ele>
        <time>2015-08-25T08:12:11Z</time>
      </trkpt>
      <trkpt lat="43.834246" lon="1.724616">
        <ele>134.9</ele>
        <time>2015-08-25T08:12:13Z</time>
      </trkpt>
      <trkpt lat="43.834334" lon="1.724677">
        <ele>135.5</ele>
        <time>2015-08-25T08:12:15Z</time>
      </trkpt>
      <trkpt lat="43.834421" lon="1.724740">
        <ele>136.1</ele>
        <time>2015-08-25T08:12:17Z</time>
      </trkpt>
      <trkpt lat="43.834512" lon="1.724810">
        <ele>137.4</ele>
        <time>2015-08-25T08:12:19Z</time>
      </trkpt>
      <trkpt lat="43.834600" lon="1.724869">
        <ele>137.6</ele>
        <time>2015-08-25T08:12:21Z</time>
      </trkpt>
      <trkpt lat="43.834708" lon="1.724952">
        <ele>137.6</ele>
        <time>2015-08-25T08:12:24Z</time>
      </trkpt>
      <trkpt lat="43.834818" lon="1.725030">
        <ele>137.4</ele>
        <time>2015-08-25T08:12:27Z</time>
      </trkpt>
      <trkpt lat="43.834933" lon="1.725128">
        <ele>137.0</ele>
        <time>2015-08-25T08:12:30Z</time>
      </trkpt>
      <trkpt lat="43.835009" lon="1.725199">
        <ele>136.8</ele>
        <time>2015-08-25T08:12:32Z</time>
      </trkpt>
      <trkpt lat="43.835116" lon="1.725294">
        <ele>136.3</ele>
        <time>2015-08-25T08:12:35Z</time>
      </trkpt>
      <trkpt lat="43.835230" lon="1.725390">
        <ele>136.0</ele>
        <time>2015-08-25T08:12:38Z</time>
      </trkpt>
      <trkpt lat="43.835335" lon="1.725479">
        <ele>135.9</ele>
        <time>2015-08-25T08:12:41Z</time>
      </trkpt>
      <trkpt lat="43.835439" lon="1.725551">
        <ele>136.1</ele>
        <time>2015-08-25T08:12:44Z</time>
      </trkpt>
      <trkpt lat="43.835551" lon="1.725641">
        <ele>136.5</ele>
        <time>2015-08-25T08:12:47Z</time>
      </trkpt>
      <trkpt lat="43.835676" lon="1.725702">
        <ele>136.9</ele>
        <time>2015-08-25T08:12:50Z</time>
      </trkpt>
      <trkpt lat="43.835776" lon="1.725741">
        <ele>136.2</ele>
        <time>2015-08-25T08:12:53Z</time>
      </trkpt>
      <trkpt lat="43.835868" lon="1.725791">
        <ele>136.6</ele>
        <time>2015-08-25T08:12:57Z</time>
      </trkpt>
      <trkpt lat="43.835911" lon="1.725819">
        <ele>135.3</ele>
        <time>2015-08-25T08:13:10Z</time>
      </trkpt>
      <trkpt lat="43.835865" lon="1.725859">
        <ele>137.4</ele>
        <time>2015-08-25T08:16:46Z</time>
      </trkpt>
      <trkpt lat="43.835917" lon="1.725837">
        <ele>137.0</ele>
        <time>2015-08-25T08:17:16Z</time>
      </trkpt>
      <trkpt lat="43.835998" lon="1.725851">
        <ele>137.0</ele>
        <time>2015-08-25T08:17:53Z</time>
      </trkpt>
      <trkpt lat="43.836119" lon="1.725871">
        <ele>136.8</ele>
        <time>2015-08-25T08:17:58Z</time>
      </trkpt>
      <trkpt lat="43.836246" lon="1.725902">
        <ele>136.1</ele>
        <time>2015-08-25T08:18:02Z</time>
      </trkpt>
      <trkpt lat="43.836339" lon="1.725939">
        <ele>135.7</ele>
        <time>2015-08-25T08:18:05Z</time>
      </trkpt>
      <trkpt lat="43.836430" lon="1.725977">
        <ele>135.2</ele>
        <time>2015-08-25T08:18:08Z</time>
      </trkpt>
      <trkpt lat="43.836522" lon="1.726014">
        <ele>135.7</ele>
        <time>2015-08-25T08:18:11Z</time>
      </trkpt>
      <trkpt lat="43.836622" lon="1.726042">
        <ele>135.6</ele>
        <time>2015-08-25T08:18:14Z</time>
      </trkpt>
      <trkpt lat="43.836724" lon="1.726111">
        <ele>135.8</ele>
        <time>2015-08-25T08:18:17Z</time>
      </trkpt>
      <trkpt lat="43.836832" lon="1.726193">
        <ele>135.6</ele>
        <time>2015-08-25T08:18:20Z</time>
      </trkpt>
      <trkpt lat="43.836955" lon="1.726254">
        <ele>135.4</ele>
        <time>2015-08-25T08:18:23Z</time>
      </trkpt>
      <trkpt lat="43.837083" lon="1.726312">
        <ele>134.7</ele>
        <time>2015-08-25T08:18:26Z</time>
      </trkpt>
      <trkpt lat="43.837170" lon="1.726343">
        <ele>134.7</ele>
        <time>2015-08-25T08:18:28Z</time>
      </trkpt>
      <trkpt lat="43.837301" lon="1.726386">
        <ele>134.4</ele>
        <time>2015-08-25T08:18:31Z</time>
      </trkpt>
      <trkpt lat="43.837421" lon="1.726422">
        <ele>134.1</ele>
        <time>2015-08-25T08:18:34Z</time>
      </trkpt>
      <trkpt lat="43.837531" lon="1.726451">
        <ele>134.2</ele>
        <time>2015-08-25T08:18:37Z</time>
      </trkpt>
      <trkpt lat="43.837641" lon="1.726477">
        <ele>134.1</ele>
        <time>2015-08-25T08:18:40Z</time>
      </trkpt>
      <trkpt lat="43.837751" lon="1.726522">
        <ele>134.0</ele>
        <time>2015-08-25T08:18:43Z</time>
      </trkpt>
      <trkpt lat="43.837862" lon="1.726569">
        <ele>133.3</ele>
        <time>2015-08-25T08:18:46Z</time>
      </trkpt>
      <trkpt lat="43.837971" lon="1.726619">
        <ele>133.5</ele>
        <time>2015-08-25T08:18:49Z</time>
      </trkpt>
      <trkpt lat="43.838073" lon="1.726697">
        <ele>134.7</ele>
        <time>2015-08-25T08:18:52Z</time>
      </trkpt>
      <trkpt lat="43.838168" lon="1.726762">
        <ele>134.8</ele>
        <time>2015-08-25T08:18:55Z</time>
      </trkpt>
      <trkpt lat="43.838272" lon="1.726831">
        <ele>134.6</ele>
        <time>2015-08-25T08:18:58Z</time>
      </trkpt>
      <trkpt lat="43.838371" lon="1.726893">
        <ele>134.5</ele>
        <time>2015-08-25T08:19:01Z</time>
      </trkpt>
      <trkpt lat="43.838471" lon="1.726953">
        <ele>135.3</ele>
        <time>2015-08-25T08:19:04Z</time>
      </trkpt>
      <trkpt lat="43.838573" lon="1.727005">
        <ele>135.1</ele>
        <time>2015-08-25T08:19:07Z</time>
      </trkpt>
      <trkpt lat="43.838678" lon="1.727056">
        <ele>134.7</ele>
        <time>2015-08-25T08:19:10Z</time>
      </trkpt>
      <trkpt lat="43.838776" lon="1.727103">
        <ele>135.1</ele>
        <time>2015-08-25T08:19:13Z</time>
      </trkpt>
      <trkpt lat="43.838870" lon="1.727130">
        <ele>135.1</ele>
        <time>2015-08-25T08:19:16Z</time>
      </trkpt>
      <trkpt lat="43.838961" lon="1.727166">
        <ele>134.6</ele>
        <time>2015-08-25T08:19:19Z</time>
      </trkpt>
      <trkpt lat="43.839045" lon="1.727184">
        <ele>133.2</ele>
        <time>2015-08-25T08:19:22Z</time>
      </trkpt>
      <trkpt lat="43.839161" lon="1.727197">
        <ele>133.1</ele>
        <time>2015-08-25T08:19:26Z</time>
      </trkpt>
      <trkpt lat="43.839249" lon="1.727215">
        <ele>132.8</ele>
        <time>2015-08-25T08:19:29Z</time>
      </trkpt>
      <trkpt lat="43.839367" lon="1.727258">
        <ele>132.9</ele>
        <time>2015-08-25T08:19:33Z</time>
      </trkpt>
      <trkpt lat="43.839477" lon="1.727300">
        <ele>133.5</ele>
        <time>2015-08-25T08:19:37Z</time>
      </trkpt>
      <trkpt lat="43.839564" lon="1.727350">
        <ele>133.9</ele>
        <time>2015-08-25T08:19:42Z</time>
      </trkpt>
      <trkpt lat="43.839657" lon="1.727387">
        <ele>133.7</ele>
        <time>2015-08-25T08:19:50Z</time>
      </trkpt>
      <trkpt lat="43.839757" lon="1.727428">
        <ele>133.8</ele>
        <time>2015-08-25T08:19:58Z</time>
      </trkpt>
      <trkpt lat="43.839862" lon="1.727478">
        <ele>134.3</ele>
        <time>2015-08-25T08:20:04Z</time>
      </trkpt>
      <trkpt lat="43.839958" lon="1.727518">
        <ele>134.7</ele>
        <time>2015-08-25T08:20:10Z</time>
      </trkpt>
      <trkpt lat="43.840063" lon="1.727562">
        <ele>135.2</ele>
        <time>2015-08-25T08:20:15Z</time>
      </trkpt>
      <trkpt lat="43.840153" lon="1.727587">
        <ele>135.5</ele>
        <time>2015-08-25T08:20:20Z</time>
      </trkpt>
      <trkpt lat="43.840249" lon="1.727619">
        <ele>134.5</ele>
        <time>2015-08-25T08:20:26Z</time>
      </trkpt>
      <trkpt lat="43.840348" lon="1.727683">
        <ele>135.6</ele>
        <time>2015-08-25T08:20:31Z</time>
      </trkpt>
      <trkpt lat="43.840437" lon="1.727757">
        <ele>136.1</ele>
        <time>2015-08-25T08:20:35Z</time>
      </trkpt>
      <trkpt lat="43.840528" lon="1.727818">
        <ele>136.4</ele>
        <time>2015-08-25T08:20:39Z</time>
      </trkpt>
      <trkpt lat="43.840612" lon="1.727895">
        <ele>136.7</ele>
        <time>2015-08-25T08:20:43Z</time>
      </trkpt>
      <trkpt lat="43.840706" lon="1.727978">
        <ele>136.7</ele>
        <time>2015-08-25T08:20:47Z</time>
      </trkpt>
      <trkpt lat="43.840805" lon="1.728054">
        <ele>137.4</ele>
        <time>2015-08-25T08:20:51Z</time>
      </trkpt>
      <trkpt lat="43.840906" lon="1.728132">
        <ele>137.1</ele>
        <time>2015-08-25T08:20:55Z</time>
      </trkpt>
      <trkpt lat="43.840996" lon="1.728196">
        <ele>136.7</ele>
        <time>2015-08-25T08:20:59Z</time>
      </trkpt>
      <trkpt lat="43.841096" lon="1.728263">
        <ele>137.0</ele>
        <time>2015-08-25T08:21:03Z</time>
      </trkpt>
      <trkpt lat="43.841197" lon="1.728347">
        <ele>136.9</ele>
        <time>2015-08-25T08:21:07Z</time>
      </trkpt>
      <trkpt lat="43.841281" lon="1.728405">
        <ele>137.0</ele>
        <time>2015-08-25T08:21:10Z</time>
      </trkpt>
      <trkpt lat="43.841374" lon="1.728495">
        <ele>138.3</ele>
        <time>2015-08-25T08:21:14Z</time>
      </trkpt>
      <trkpt lat="43.841458" lon="1.728586">
        <ele>138.3</ele>
        <time>2015-08-25T08:21:18Z</time>
      </trkpt>
      <trkpt lat="43.841553" lon="1.728659">
        <ele>138.4</ele>
        <time>2015-08-25T08:21:22Z</time>
      </trkpt>
      <trkpt lat="43.841622" lon="1.728740">
        <ele>138.1</ele>
        <time>2015-08-25T08:21:26Z</time>
      </trkpt>
      <trkpt lat="43.841707" lon="1.728796">
        <ele>138.3</ele>
        <time>2015-08-25T08:21:33Z</time>
      </trkpt>
      <trkpt lat="43.841689" lon="1.728764">
        <ele>136.2</ele>
        <time>2015-08-25T08:24:58Z</time>
      </trkpt>
      <trkpt lat="43.841624" lon="1.728719">
        <ele>136.4</ele>
        <time>2015-08-25T08:25:28Z</time>
      </trkpt>
      <trkpt lat="43.841694" lon="1.728754">
        <ele>137.2</ele>
        <time>2015-08-25T08:26:07Z</time>
      </trkpt>
      <trkpt lat="43.841753" lon="1.728825">
        <ele>136.5</ele>
        <time>2015-08-25T08:27:13Z</time>
      </trkpt>
      <trkpt lat="43.841844" lon="1.728918">
        <ele>137.2</ele>
        <time>2015-08-25T08:27:19Z</time>
      </trkpt>
      <trkpt lat="43.841928" lon="1.729017">
        <ele>137.9</ele>
        <time>2015-08-25T08:27:24Z</time>
      </trkpt>
      <trkpt lat="43.841998" lon="1.729087">
        <ele>137.8</ele>
        <time>2015-08-25T08:27:38Z</time>
      </trkpt>
      <trkpt lat="43.842072" lon="1.729177">
        <ele>137.8</ele>
        <time>2015-08-25T08:27:42Z</time>
      </trkpt>
      <trkpt lat="43.842158" lon="1.729285">
        <ele>138.6</ele>
        <time>2015-08-25T08:27:46Z</time>
      </trkpt>
      <trkpt lat="43.842226" lon="1.729382">
        <ele>138.9</ele>
        <time>2015-08-25T08:27:49Z</time>
      </trkpt>
      <trkpt lat="43.842306" lon="1.729484">
        <ele>139.9</ele>
        <time>2015-08-25T08:27:52Z</time>
      </trkpt>
      <trkpt lat="43.842379" lon="1.729589">
        <ele>140.5</ele>
        <time>2015-08-25T08:27:55Z</time>
      </trkpt>
      <trkpt lat="43.842449" lon="1.729687">
        <ele>140.9</ele>
        <time>2015-08-25T08:27:58Z</time>
      </trkpt>
      <trkpt lat="43.842524" lon="1.729799">
        <ele>140.9</ele>
        <time>2015-08-25T08:28:01Z</time>
      </trkpt>
      <trkpt lat="43.842605" lon="1.729932">
        <ele>140.7</ele>
        <time>2015-08-25T08:28:04Z</time>
      </trkpt>
      <trkpt lat="43.842691" lon="1.730075">
        <ele>140.9</ele>
        <time>2015-08-25T08:28:07Z</time>
      </trkpt>
      <trkpt lat="43.842761" lon="1.730197">
        <ele>140.7</ele>
        <time>2015-08-25T08:28:10Z</time>
      </trkpt>
      <trkpt lat="43.842844" lon="1.730338">
        <ele>140.4</ele>
        <time>2015-08-25T08:28:13Z</time>
      </trkpt>
      <trkpt lat="43.842919" lon="1.730465">
        <ele>140.4</ele>
        <time>2015-08-25T08:28:16Z</time>
      </trkpt>
      <trkpt lat="43.842992" lon="1.730574">
        <ele>140.2</ele>
        <time>2015-08-25T08:28:19Z</time>
      </trkpt>
      <trkpt lat="43.843064" lon="1.730674">
        <ele>140.6</ele>
        <time>2015-08-25T08:28:22Z</time>
      </trkpt>
      <trkpt lat="43.843156" lon="1.730763">
        <ele>140.3</ele>
        <time>2015-08-25T08:28:25Z</time>
      </trkpt>
      <trkpt lat="43.843257" lon="1.730853">
        <ele>139.8</ele>
        <time>2015-08-25T08:28:28Z</time>
      </trkpt>
      <trkpt lat="43.843341" lon="1.730937">
        <ele>140.3</ele>
        <time>2015-08-25T08:28:31Z</time>
      </trkpt>
      <trkpt lat="43.843448" lon="1.731026">
        <ele>140.0</ele>
        <time>2015-08-25T08:28:34Z</time>
      </trkpt>
      <trkpt lat="43.843564" lon="1.731104">
        <ele>139.6</ele>
        <time>2015-08-25T08:28:37Z</time>
      </trkpt>
      <trkpt lat="43.843689" lon="1.731143">
        <ele>140.1</ele>
        <time>2015-08-25T08:28:40Z</time>
      </trkpt>
      <trkpt lat="43.843818" lon="1.731160">
        <ele>139.3</ele>
        <time>2015-08-25T08:28:43Z</time>
      </trkpt>
      <trkpt lat="43.843910" lon="1.731167">
        <ele>139.7</ele>
        <time>2015-08-25T08:28:45Z</time>
      </trkpt>
      <trkpt lat="43.844005" lon="1.731174">
        <ele>139.3</ele>
        <time>2015-08-25T08:28:47Z</time>
      </trkpt>
      <trkpt lat="43.844103" lon="1.731189">
        <ele>139.3</ele>
        <time>2015-08-25T08:28:49Z</time>
      </trkpt>
      <trkpt lat="43.844194" lon="1.731202">
        <ele>139.3</ele>
        <time>2015-08-25T08:28:51Z</time>
      </trkpt>
      <trkpt lat="43.844287" lon="1.731233">
        <ele>139.3</ele>
        <time>2015-08-25T08:28:53Z</time>
      </trkpt>
      <trkpt lat="43.844387" lon="1.731266">
        <ele>138.3</ele>
        <time>2015-08-25T08:28:55Z</time>
      </trkpt>
      <trkpt lat="43.844483" lon="1.731316">
        <ele>138.1</ele>
        <time>2015-08-25T08:28:57Z</time>
      </trkpt>
      <trkpt lat="43.844570" lon="1.731363">
        <ele>138.4</ele>
        <time>2015-08-25T08:28:59Z</time>
      </trkpt>
      <trkpt lat="43.844661" lon="1.731413">
        <ele>138.1</ele>
        <time>2015-08-25T08:29:01Z</time>
      </trkpt>
      <trkpt lat="43.844756" lon="1.731465">
        <ele>138.3</ele>
        <time>2015-08-25T08:29:03Z</time>
      </trkpt>
      <trkpt lat="43.844840" lon="1.731522">
        <ele>139.1</ele>
        <time>2015-08-25T08:29:05Z</time>
      </trkpt>
      <trkpt lat="43.844946" lon="1.731605">
        <ele>139.5</ele>
        <time>2015-08-25T08:29:08Z</time>
      </trkpt>
      <trkpt lat="43.845047" lon="1.731707">
        <ele>140.1</ele>
        <time>2015-08-25T08:29:11Z</time>
      </trkpt>
      <trkpt lat="43.845141" lon="1.731802">
        <ele>140.4</ele>
        <time>2015-08-25T08:29:14Z</time>
      </trkpt>
      <trkpt lat="43.845239" lon="1.731909">
        <ele>140.7</ele>
        <time>2015-08-25T08:29:17Z</time>
      </trkpt>
      <trkpt lat="43.845340" lon="1.732013">
        <ele>141.2</ele>
        <time>2015-08-25T08:29:20Z</time>
      </trkpt>
      <trkpt lat="43.845441" lon="1.732111">
        <ele>142.0</ele>
        <time>2015-08-25T08:29:23Z</time>
      </trkpt>
      <trkpt lat="43.845554" lon="1.732218">
        <ele>141.9</ele>
        <time>2015-08-25T08:29:26Z</time>
      </trkpt>
      <trkpt lat="43.845633" lon="1.732282">
        <ele>141.9</ele>
        <time>2015-08-25T08:29:28Z</time>
      </trkpt>
      <trkpt lat="43.845713" lon="1.732351">
        <ele>141.9</ele>
        <time>2015-08-25T08:29:30Z</time>
      </trkpt>
      <trkpt lat="43.845795" lon="1.732414">
        <ele>142.0</ele>
        <time>2015-08-25T08:29:32Z</time>
      </trkpt>
      <trkpt lat="43.845877" lon="1.732475">
        <ele>142.3</ele>
        <time>2015-08-25T08:29:34Z</time>
      </trkpt>
      <trkpt lat="43.845993" lon="1.732551">
        <ele>142.1</ele>
        <time>2015-08-25T08:29:37Z</time>
      </trkpt>
      <trkpt lat="43.846105" lon="1.732629">
        <ele>142.7</ele>
        <time>2015-08-25T08:29:40Z</time>
      </trkpt>
      <trkpt lat="43.846232" lon="1.732707">
        <ele>141.9</ele>
        <time>2015-08-25T08:29:43Z</time>
      </trkpt>
      <trkpt lat="43.846351" lon="1.732786">
        <ele>142.1</ele>
        <time>2015-08-25T08:29:46Z</time>
      </trkpt>
      <trkpt lat="43.846457" lon="1.732847">
        <ele>141.5</ele>
        <time>2015-08-25T08:29:49Z</time>
      </trkpt>
      <trkpt lat="43.846569" lon="1.732895">
        <ele>141.2</ele>
        <time>2015-08-25T08:29:52Z</time>
      </trkpt>
      <trkpt lat="43.846682" lon="1.732923">
        <ele>140.3</ele>
        <time>2015-08-25T08:29:55Z</time>
      </trkpt>
      <trkpt lat="43.846789" lon="1.732965">
        <ele>139.1</ele>
        <time>2015-08-25T08:29:58Z</time>
      </trkpt>
      <trkpt lat="43.846899" lon="1.732990">
        <ele>138.6</ele>
        <time>2015-08-25T08:30:01Z</time>
      </trkpt>
      <trkpt lat="43.847004" lon="1.733012">
        <ele>137.6</ele>
        <time>2015-08-25T08:30:04Z</time>
      </trkpt>
      <trkpt lat="43.847111" lon="1.733035">
        <ele>138.7</ele>
        <time>2015-08-25T08:30:07Z</time>
      </trkpt>
      <trkpt lat="43.847201" lon="1.733035">
        <ele>138.3</ele>
        <time>2015-08-25T08:30:10Z</time>
      </trkpt>
      <trkpt lat="43.847299" lon="1.733028">
        <ele>138.4</ele>
        <time>2015-08-25T08:30:13Z</time>
      </trkpt>
      <trkpt lat="43.847394" lon="1.733015">
        <ele>138.5</ele>
        <time>2015-08-25T08:30:16Z</time>
      </trkpt>
      <trkpt lat="43.847482" lon="1.732999">
        <ele>138.6</ele>
        <time>2015-08-25T08:30:19Z</time>
      </trkpt>
      <trkpt lat="43.847590" lon="1.732982">
        <ele>138.6</ele>
        <time>2015-08-25T08:30:23Z</time>
      </trkpt>
      <trkpt lat="43.847702" lon="1.732964">
        <ele>138.4</ele>
        <time>2015-08-25T08:30:27Z</time>
      </trkpt>
      <trkpt lat="43.847811" lon="1.732967">
        <ele>138.6</ele>
        <time>2015-08-25T08:30:31Z</time>
      </trkpt>
      <trkpt lat="43.847900" lon="1.732988">
        <ele>138.0</ele>
        <time>2015-08-25T08:30:36Z</time>
      </trkpt>
      <trkpt lat="43.847932" lon="1.733001">
        <ele>140.1</ele>
        <time>2015-08-25T08:32:13Z</time>
      </trkpt>
      <trkpt lat="43.848030" lon="1.733008">
        <ele>140.5</ele>
        <time>2015-08-25T08:32:18Z</time>
      </trkpt>
      <trkpt lat="43.848130" lon="1.733022">
        <ele>141.0</ele>
        <time>2015-08-25T08:32:22Z</time>
      </trkpt>
      <trkpt lat="43.848238" lon="1.733051">
        <ele>141.3</ele>
        <time>2015-08-25T08:32:26Z</time>
      </trkpt>
      <trkpt lat="43.848358" lon="1.733098">
        <ele>141.5</ele>
        <time>2015-08-25T08:32:30Z</time>
      </trkpt>
      <trkpt lat="43.848465" lon="1.733146">
        <ele>142.2</ele>
        <time>2015-08-25T08:32:33Z</time>
      </trkpt>
      <trkpt lat="43.848566" lon="1.733186">
        <ele>142.6</ele>
        <time>2015-08-25T08:32:36Z</time>
      </trkpt>
      <trkpt lat="43.848671" lon="1.733215">
        <ele>142.7</ele>
        <time>2015-08-25T08:32:40Z</time>
      </trkpt>
      <trkpt lat="43.848771" lon="1.733226">
        <ele>142.8</ele>
        <time>2015-08-25T08:32:44Z</time>
      </trkpt>
      <trkpt lat="43.848874" lon="1.733215">
        <ele>143.0</ele>
        <time>2015-08-25T08:32:50Z</time>
      </trkpt>
      <trkpt lat="43.848962" lon="1.733284">
        <ele>141.7</ele>
        <time>2015-08-25T08:33:20Z</time>
      </trkpt>
      <trkpt lat="43.849043" lon="1.733378">
        <ele>140.9</ele>
        <time>2015-08-25T08:33:24Z</time>
      </trkpt>
      <trkpt lat="43.849131" lon="1.733496">
        <ele>140.8</ele>
        <time>2015-08-25T08:33:28Z</time>
      </trkpt>
      <trkpt lat="43.849216" lon="1.733582">
        <ele>141.1</ele>
        <time>2015-08-25T08:33:31Z</time>
      </trkpt>
      <trkpt lat="43.849303" lon="1.733675">
        <ele>140.6</ele>
        <time>2015-08-25T08:33:34Z</time>
      </trkpt>
      <trkpt lat="43.849388" lon="1.733776">
        <ele>140.6</ele>
        <time>2015-08-25T08:33:37Z</time>
      </trkpt>
      <trkpt lat="43.849477" lon="1.733878">
        <ele>140.8</ele>
        <time>2015-08-25T08:33:40Z</time>
      </trkpt>
      <trkpt lat="43.849568" lon="1.733976">
        <ele>140.7</ele>
        <time>2015-08-25T08:33:43Z</time>
      </trkpt>
      <trkpt lat="43.849653" lon="1.734073">
        <ele>140.7</ele>
        <time>2015-08-25T08:33:46Z</time>
      </trkpt>
      <trkpt lat="43.849742" lon="1.734165">
        <ele>140.8</ele>
        <time>2015-08-25T08:33:49Z</time>
      </trkpt>
      <trkpt lat="43.849825" lon="1.734258">
        <ele>140.8</ele>
        <time>2015-08-25T08:33:52Z</time>
      </trkpt>
      <trkpt lat="43.849912" lon="1.734339">
        <ele>141.2</ele>
        <time>2015-08-25T08:33:55Z</time>
      </trkpt>
      <trkpt lat="43.850001" lon="1.734418">
        <ele>140.7</ele>
        <time>2015-08-25T08:33:58Z</time>
      </trkpt>
      <trkpt lat="43.850089" lon="1.734490">
        <ele>140.4</ele>
        <time>2015-08-25T08:34:01Z</time>
      </trkpt>
      <trkpt lat="43.850183" lon="1.734564">
        <ele>139.9</ele>
        <time>2015-08-25T08:34:04Z</time>
      </trkpt>
      <trkpt lat="43.850270" lon="1.734639">
        <ele>139.8</ele>
        <time>2015-08-25T08:34:07Z</time>
      </trkpt>
      <trkpt lat="43.850361" lon="1.734710">
        <ele>140.0</ele>
        <time>2015-08-25T08:34:10Z</time>
      </trkpt>
      <trkpt lat="43.850449" lon="1.734768">
        <ele>139.0</ele>
        <time>2015-08-25T08:34:13Z</time>
      </trkpt>
      <trkpt lat="43.850531" lon="1.734828">
        <ele>138.9</ele>
        <time>2015-08-25T08:34:16Z</time>
      </trkpt>
      <trkpt lat="43.850629" lon="1.734874">
        <ele>139.8</ele>
        <time>2015-08-25T08:34:20Z</time>
      </trkpt>
      <trkpt lat="43.850674" lon="1.734784">
        <ele>142.7</ele>
        <time>2015-08-25T08:34:27Z</time>
      </trkpt>
      <trkpt lat="43.850676" lon="1.734640">
        <ele>145.7</ele>
        <time>2015-08-25T08:34:45Z</time>
      </trkpt>
      <trkpt lat="43.850725" lon="1.734517">
        <ele>146.1</ele>
        <time>2015-08-25T08:34:50Z</time>
      </trkpt>
      <trkpt lat="43.850771" lon="1.734396">
        <ele>146.6</ele>
        <time>2015-08-25T08:34:57Z</time>
      </trkpt>
      <trkpt lat="43.850826" lon="1.734263">
        <ele>147.7</ele>
        <time>2015-08-25T08:35:02Z</time>
      </trkpt>
      <trkpt lat="43.850883" lon="1.734148">
        <ele>148.9</ele>
        <time>2015-08-25T08:35:07Z</time>
      </trkpt>
      <trkpt lat="43.850931" lon="1.734014">
        <ele>151.1</ele>
        <time>2015-08-25T08:35:12Z</time>
      </trkpt>
      <trkpt lat="43.850990" lon="1.733895">
        <ele>152.9</ele>
        <time>2015-08-25T08:35:17Z</time>
      </trkpt>
      <trkpt lat="43.851059" lon="1.733779">
        <ele>153.5</ele>
        <time>2015-08-25T08:35:22Z</time>
      </trkpt>
      <trkpt lat="43.851138" lon="1.733669">
        <ele>155.2</ele>
        <time>2015-08-25T08:35:27Z</time>
      </trkpt>
      <trkpt lat="43.851230" lon="1.733573">
        <ele>154.8</ele>
        <time>2015-08-25T08:35:32Z</time>
      </trkpt>
      <trkpt lat="43.851322" lon="1.733530">
        <ele>154.8</ele>
        <time>2015-08-25T08:35:36Z</time>
      </trkpt>
      <trkpt lat="43.851415" lon="1.733508">
        <ele>155.7</ele>
        <time>2015-08-25T08:35:40Z</time>
      </trkpt>
      <trkpt lat="43.851514" lon="1.733505">
        <ele>157.1</ele>
        <time>2015-08-25T08:35:44Z</time>
      </trkpt>
      <trkpt lat="43.851617" lon="1.733508">
        <ele>158.2</ele>
        <time>2015-08-25T08:35:48Z</time>
      </trkpt>
      <trkpt lat="43.851717" lon="1.733525">
        <ele>159.9</ele>
        <time>2015-08-25T08:35:52Z</time>
      </trkpt>
      <trkpt lat="43.851827" lon="1.733545">
        <ele>162.1</ele>
        <time>2015-08-25T08:35:57Z</time>
      </trkpt>
      <trkpt lat="43.851922" lon="1.733564">
        <ele>162.8</ele>
        <time>2015-08-25T08:36:01Z</time>
      </trkpt>
      <trkpt lat="43.852010" lon="1.733591">
        <ele>164.3</ele>
        <time>2015-08-25T08:36:05Z</time>
      </trkpt>
      <trkpt lat="43.852120" lon="1.733613">
        <ele>166.2</ele>
        <time>2015-08-25T08:36:10Z</time>
      </trkpt>
      <trkpt lat="43.852229" lon="1.733638">
        <ele>168.3</ele>
        <time>2015-08-25T08:36:16Z</time>
      </trkpt>
      <trkpt lat="43.852338" lon="1.733645">
        <ele>169.8</ele>
        <time>2015-08-25T08:36:22Z</time>
      </trkpt>
      <trkpt lat="43.852436" lon="1.733650">
        <ele>171.2</ele>
        <time>2015-08-25T08:36:27Z</time>
      </trkpt>
      <trkpt lat="43.852543" lon="1.733646">
        <ele>172.4</ele>
        <time>2015-08-25T08:36:33Z</time>
      </trkpt>
      <trkpt lat="43.852634" lon="1.733643">
        <ele>174.1</ele>
        <time>2015-08-25T08:36:38Z</time>
      </trkpt>
      <trkpt lat="43.852729" lon="1.733616">
        <ele>175.7</ele>
        <time>2015-08-25T08:36:43Z</time>
      </trkpt>
      <trkpt lat="43.852823" lon="1.733586">
        <ele>177.0</ele>
        <time>2015-08-25T08:36:48Z</time>
      </trkpt>
      <trkpt lat="43.852931" lon="1.733538">
        <ele>178.1</ele>
        <time>2015-08-25T08:36:53Z</time>
      </trkpt>
      <trkpt lat="43.853010" lon="1.733471">
        <ele>178.2</ele>
        <time>2015-08-25T08:36:57Z</time>
      </trkpt>
      <trkpt lat="43.853110" lon="1.733395">
        <ele>178.7</ele>
        <time>2015-08-25T08:37:02Z</time>
      </trkpt>
      <trkpt lat="43.853204" lon="1.733298">
        <ele>178.4</ele>
        <time>2015-08-25T08:37:07Z</time>
      </trkpt>
      <trkpt lat="43.853283" lon="1.733211">
        <ele>178.1</ele>
        <time>2015-08-25T08:37:12Z</time>
      </trkpt>
      <trkpt lat="43.853347" lon="1.733104">
        <ele>178.1</ele>
        <time>2015-08-25T08:37:17Z</time>
      </trkpt>
      <trkpt lat="43.853421" lon="1.733014">
        <ele>178.3</ele>
        <time>2015-08-25T08:37:22Z</time>
      </trkpt>
      <trkpt lat="43.853492" lon="1.732910">
        <ele>179.7</ele>
        <time>2015-08-25T08:37:28Z</time>
      </trkpt>
      <trkpt lat="43.853523" lon="1.732890">
        <ele>190.8</ele>
        <time>2015-08-25T08:39:51Z</time>
      </trkpt>
      <trkpt lat="43.853585" lon="1.732973">
        <ele>189.5</ele>
        <time>2015-08-25T08:39:57Z</time>
      </trkpt>
      <trkpt lat="43.853677" lon="1.732984">
        <ele>187.9</ele>
        <time>2015-08-25T08:40:14Z</time>
      </trkpt>
      <trkpt lat="43.853779" lon="1.732869">
        <ele>186.8</ele>
        <time>2015-08-25T08:40:58Z</time>
      </trkpt>
      <trkpt lat="43.853872" lon="1.732835">
        <ele>187.4</ele>
        <time>2015-08-25T08:41:09Z</time>
      </trkpt>
      <trkpt lat="43.853947" lon="1.732769">
        <ele>187.5</ele>
        <time>2015-08-25T08:41:22Z</time>
      </trkpt>
      <trkpt lat="43.853956" lon="1.732735">
        <ele>189.5</ele>
        <time>2015-08-25T08:42:01Z</time>
      </trkpt>
      <trkpt lat="43.853909" lon="1.732839">
        <ele>189.1</ele>
        <time>2015-08-25T08:42:15Z</time>
      </trkpt>
      <trkpt lat="43.853828" lon="1.732884">
        <ele>188.7</ele>
        <time>2015-08-25T08:42:24Z</time>
      </trkpt>
      <trkpt lat="43.853729" lon="1.732904">
        <ele>187.2</ele>
        <time>2015-08-25T08:42:38Z</time>
      </trkpt>
      <trkpt lat="43.853623" lon="1.732921">
        <ele>186.1</ele>
        <time>2015-08-25T08:42:48Z</time>
      </trkpt>
      <trkpt lat="43.853548" lon="1.732903">
        <ele>186.2</ele>
        <time>2015-08-25T08:43:27Z</time>
      </trkpt>
      <trkpt lat="43.853527" lon="1.732853">
        <ele>189.3</ele>
        <time>2015-08-25T08:44:43Z</time>
      </trkpt>
      <trkpt lat="43.853433" lon="1.732968">
        <ele>188.6</ele>
        <time>2015-08-25T08:44:57Z</time>
      </trkpt>
      <trkpt lat="43.853372" lon="1.733065">
        <ele>188.1</ele>
        <time>2015-08-25T08:44:59Z</time>
      </trkpt>
      <trkpt lat="43.853285" lon="1.733174">
        <ele>186.9</ele>
        <time>2015-08-25T08:45:01Z</time>
      </trkpt>
      <trkpt lat="43.853177" lon="1.733292">
        <ele>185.9</ele>
        <time>2015-08-25T08:45:03Z</time>
      </trkpt>
      <trkpt lat="43.853051" lon="1.733416">
        <ele>183.7</ele>
        <time>2015-08-25T08:45:05Z</time>
      </trkpt>
      <trkpt lat="43.852905" lon="1.733522">
        <ele>182.8</ele>
        <time>2015-08-25T08:45:07Z</time>
      </trkpt>
      <trkpt lat="43.852826" lon="1.733564">
        <ele>181.5</ele>
        <time>2015-08-25T08:45:08Z</time>
      </trkpt>
      <trkpt lat="43.852649" lon="1.733624">
        <ele>178.2</ele>
        <time>2015-08-25T08:45:10Z</time>
      </trkpt>
      <trkpt lat="43.852551" lon="1.733648">
        <ele>176.9</ele>
        <time>2015-08-25T08:45:11Z</time>
      </trkpt>
      <trkpt lat="43.852448" lon="1.733661">
        <ele>175.6</ele>
        <time>2015-08-25T08:45:12Z</time>
      </trkpt>
      <trkpt lat="43.852341" lon="1.733658">
        <ele>174.2</ele>
        <time>2015-08-25T08:45:13Z</time>
      </trkpt>
      <trkpt lat="43.852232" lon="1.733644">
        <ele>172.6</ele>
        <time>2015-08-25T08:45:14Z</time>
      </trkpt>
      <trkpt lat="43.852119" lon="1.733624">
        <ele>170.9</ele>
        <time>2015-08-25T08:45:15Z</time>
      </trkpt>
      <trkpt lat="43.852002" lon="1.733600">
        <ele>169.1</ele>
        <time>2015-08-25T08:45:16Z</time>
      </trkpt>
      <trkpt lat="43.851882" lon="1.733574">
        <ele>167.3</ele>
        <time>2015-08-25T08:45:17Z</time>
      </trkpt>
      <trkpt lat="43.851760" lon="1.733551">
        <ele>165.6</ele>
        <time>2015-08-25T08:45:18Z</time>
      </trkpt>
      <trkpt lat="43.851640" lon="1.733527">
        <ele>164.0</ele>
        <time>2015-08-25T08:45:19Z</time>
      </trkpt>
      <trkpt lat="43.851525" lon="1.733506">
        <ele>162.6</ele>
        <time>2015-08-25T08:45:20Z</time>
      </trkpt>
      <trkpt lat="43.851416" lon="1.733497">
        <ele>161.4</ele>
        <time>2015-08-25T08:45:21Z</time>
      </trkpt>
      <trkpt lat="43.851316" lon="1.733509">
        <ele>160.3</ele>
        <time>2015-08-25T08:45:22Z</time>
      </trkpt>
      <trkpt lat="43.851221" lon="1.733540">
        <ele>159.2</ele>
        <time>2015-08-25T08:45:23Z</time>
      </trkpt>
      <trkpt lat="43.851141" lon="1.733605">
        <ele>158.2</ele>
        <time>2015-08-25T08:45:24Z</time>
      </trkpt>
      <trkpt lat="43.851070" lon="1.733691">
        <ele>157.0</ele>
        <time>2015-08-25T08:45:25Z</time>
      </trkpt>
      <trkpt lat="43.851006" lon="1.733799">
        <ele>155.7</ele>
        <time>2015-08-25T08:45:26Z</time>
      </trkpt>
      <trkpt lat="43.850943" lon="1.733915">
        <ele>154.3</ele>
        <time>2015-08-25T08:45:27Z</time>
      </trkpt>
      <trkpt lat="43.850881" lon="1.734037">
        <ele>152.9</ele>
        <time>2015-08-25T08:45:28Z</time>
      </trkpt>
      <trkpt lat="43.850822" lon="1.734165">
        <ele>151.6</ele>
        <time>2015-08-25T08:45:29Z</time>
      </trkpt>
      <trkpt lat="43.850767" lon="1.734295">
        <ele>150.2</ele>
        <time>2015-08-25T08:45:30Z</time>
      </trkpt>
      <trkpt lat="43.850717" lon="1.734424">
        <ele>149.0</ele>
        <time>2015-08-25T08:45:31Z</time>
      </trkpt>
      <trkpt lat="43.850678" lon="1.734550">
        <ele>147.2</ele>
        <time>2015-08-25T08:45:32Z</time>
      </trkpt>
      <trkpt lat="43.850622" lon="1.734762">
        <ele>145.4</ele>
        <time>2015-08-25T08:45:34Z</time>
      </trkpt>
      <trkpt lat="43.850555" lon="1.734872">
        <ele>142.2</ele>
        <time>2015-08-25T08:45:37Z</time>
      </trkpt>
      <trkpt lat="43.850429" lon="1.734806">
        <ele>139.7</ele>
        <time>2015-08-25T08:45:40Z</time>
      </trkpt>
      <trkpt lat="43.850333" lon="1.734730">
        <ele>140.1</ele>
        <time>2015-08-25T08:45:42Z</time>
      </trkpt>
      <trkpt lat="43.850231" lon="1.734650">
        <ele>139.1</ele>
        <time>2015-08-25T08:45:44Z</time>
      </trkpt>
      <trkpt lat="43.850122" lon="1.734562">
        <ele>138.7</ele>
        <time>2015-08-25T08:45:46Z</time>
      </trkpt>
      <trkpt lat="43.850011" lon="1.734474">
        <ele>138.6</ele>
        <time>2015-08-25T08:45:48Z</time>
      </trkpt>
      <trkpt lat="43.849902" lon="1.734381">
        <ele>138.7</ele>
        <time>2015-08-25T08:45:50Z</time>
      </trkpt>
      <trkpt lat="43.849794" lon="1.734279">
        <ele>138.5</ele>
        <time>2015-08-25T08:45:52Z</time>
      </trkpt>
      <trkpt lat="43.849691" lon="1.734169">
        <ele>138.6</ele>
        <time>2015-08-25T08:45:54Z</time>
      </trkpt>
      <trkpt lat="43.849590" lon="1.734058">
        <ele>138.3</ele>
        <time>2015-08-25T08:45:56Z</time>
      </trkpt>
      <trkpt lat="43.849493" lon="1.733946">
        <ele>137.7</ele>
        <time>2015-08-25T08:45:58Z</time>
      </trkpt>
      <trkpt lat="43.849397" lon="1.733838">
        <ele>138.1</ele>
        <time>2015-08-25T08:46:00Z</time>
      </trkpt>
      <trkpt lat="43.849306" lon="1.733734">
        <ele>138.1</ele>
        <time>2015-08-25T08:46:02Z</time>
      </trkpt>
      <trkpt lat="43.849221" lon="1.733645">
        <ele>137.9</ele>
        <time>2015-08-25T08:46:04Z</time>
      </trkpt>
      <trkpt lat="43.849145" lon="1.733560">
        <ele>137.8</ele>
        <time>2015-08-25T08:46:06Z</time>
      </trkpt>
      <trkpt lat="43.849077" lon="1.733474">
        <ele>137.7</ele>
        <time>2015-08-25T08:46:08Z</time>
      </trkpt>
      <trkpt lat="43.848984" lon="1.733362">
        <ele>137.0</ele>
        <time>2015-08-25T08:46:11Z</time>
      </trkpt>
      <trkpt lat="43.848909" lon="1.733242">
        <ele>137.5</ele>
        <time>2015-08-25T08:46:14Z</time>
      </trkpt>
      <trkpt lat="43.848888" lon="1.733117">
        <ele>138.6</ele>
        <time>2015-08-25T08:46:17Z</time>
      </trkpt>
      <trkpt lat="43.848917" lon="1.732987">
        <ele>140.1</ele>
        <time>2015-08-25T08:46:20Z</time>
      </trkpt>
      <trkpt lat="43.848970" lon="1.732856">
        <ele>141.2</ele>
        <time>2015-08-25T08:46:23Z</time>
      </trkpt>
      <trkpt lat="43.849023" lon="1.732728">
        <ele>142.6</ele>
        <time>2015-08-25T08:46:26Z</time>
      </trkpt>
      <trkpt lat="43.849060" lon="1.732605">
        <ele>143.5</ele>
        <time>2015-08-25T08:46:29Z</time>
      </trkpt>
      <trkpt lat="43.849096" lon="1.732492">
        <ele>145.0</ele>
        <time>2015-08-25T08:46:33Z</time>
      </trkpt>
      <trkpt lat="43.849114" lon="1.732378">
        <ele>148.0</ele>
        <time>2015-08-25T08:46:41Z</time>
      </trkpt>
      <trkpt lat="43.849130" lon="1.732303">
        <ele>148.7</ele>
        <time>2015-08-25T08:47:33Z</time>
      </trkpt>
      <trkpt lat="43.849175" lon="1.732188">
        <ele>148.9</ele>
        <time>2015-08-25T08:47:38Z</time>
      </trkpt>
      <trkpt lat="43.849256" lon="1.732079">
        <ele>149.4</ele>
        <time>2015-08-25T08:47:42Z</time>
      </trkpt>
      <trkpt lat="43.849349" lon="1.732060">
        <ele>149.5</ele>
        <time>2015-08-25T08:47:45Z</time>
      </trkpt>
      <trkpt lat="43.849454" lon="1.732043">
        <ele>149.2</ele>
        <time>2015-08-25T08:47:48Z</time>
      </trkpt>
      <trkpt lat="43.849546" lon="1.731961">
        <ele>150.1</ele>
        <time>2015-08-25T08:47:51Z</time>
      </trkpt>
      <trkpt lat="43.849619" lon="1.731859">
        <ele>149.3</ele>
        <time>2015-08-25T08:47:54Z</time>
      </trkpt>
      <trkpt lat="43.849681" lon="1.731753">
        <ele>148.8</ele>
        <time>2015-08-25T08:47:57Z</time>
      </trkpt>
      <trkpt lat="43.849749" lon="1.731616">
        <ele>149.1</ele>
        <time>2015-08-25T08:48:01Z</time>
      </trkpt>
      <trkpt lat="43.849818" lon="1.731525">
        <ele>149.1</ele>
        <time>2015-08-25T08:48:04Z</time>
      </trkpt>
      <trkpt lat="43.849888" lon="1.731424">
        <ele>149.0</ele>
        <time>2015-08-25T08:48:07Z</time>
      </trkpt>
      <trkpt lat="43.849952" lon="1.731321">
        <ele>149.3</ele>
        <time>2015-08-25T08:48:10Z</time>
      </trkpt>
      <trkpt lat="43.850034" lon="1.731197">
        <ele>148.9</ele>
        <time>2015-08-25T08:48:14Z</time>
      </trkpt>
      <trkpt lat="43.850101" lon="1.731082">
        <ele>148.9</ele>
        <time>2015-08-25T08:48:18Z</time>
      </trkpt>
      <trkpt lat="43.850181" lon="1.730989">
        <ele>148.2</ele>
        <time>2015-08-25T08:48:22Z</time>
      </trkpt>
      <trkpt lat="43.850264" lon="1.730930">
        <ele>148.5</ele>
        <time>2015-08-25T08:48:26Z</time>
      </trkpt>
      <trkpt lat="43.850351" lon="1.730867">
        <ele>148.2</ele>
        <time>2015-08-25T08:48:30Z</time>
      </trkpt>
      <trkpt lat="43.850443" lon="1.730807">
        <ele>148.0</ele>
        <time>2015-08-25T08:48:35Z</time>
      </trkpt>
      <trkpt lat="43.850531" lon="1.730695">
        <ele>148.4</ele>
        <time>2015-08-25T08:48:42Z</time>
      </trkpt>
      <trkpt lat="43.850617" lon="1.730604">
        <ele>147.7</ele>
        <time>2015-08-25T08:48:46Z</time>
      </trkpt>
      <trkpt lat="43.850712" lon="1.730526">
        <ele>147.4</ele>
        <time>2015-08-25T08:48:50Z</time>
      </trkpt>
      <trkpt lat="43.850805" lon="1.730428">
        <ele>147.8</ele>
        <time>2015-08-25T08:48:54Z</time>
      </trkpt>
      <trkpt lat="43.850874" lon="1.730328">
        <ele>151.7</ele>
        <time>2015-08-25T08:48:58Z</time>
      </trkpt>
      <trkpt lat="43.850934" lon="1.730219">
        <ele>152.4</ele>
        <time>2015-08-25T08:49:01Z</time>
      </trkpt>
      <trkpt lat="43.851008" lon="1.730090">
        <ele>153.9</ele>
        <time>2015-08-25T08:49:05Z</time>
      </trkpt>
      <trkpt lat="43.851087" lon="1.729962">
        <ele>153.7</ele>
        <time>2015-08-25T08:49:09Z</time>
      </trkpt>
      <trkpt lat="43.851172" lon="1.729854">
        <ele>154.0</ele>
        <time>2015-08-25T08:49:13Z</time>
      </trkpt>
      <trkpt lat="43.851256" lon="1.729744">
        <ele>153.4</ele>
        <time>2015-08-25T08:49:17Z</time>
      </trkpt>
      <trkpt lat="43.851327" lon="1.729643">
        <ele>153.6</ele>
        <time>2015-08-25T08:49:21Z</time>
      </trkpt>
      <trkpt lat="43.851403" lon="1.729540">
        <ele>154.9</ele>
        <time>2015-08-25T08:49:26Z</time>
      </trkpt>
      <trkpt lat="43.851475" lon="1.729443">
        <ele>154.9</ele>
        <time>2015-08-25T08:49:30Z</time>
      </trkpt>
      <trkpt lat="43.851550" lon="1.729373">
        <ele>155.0</ele>
        <time>2015-08-25T08:49:34Z</time>
      </trkpt>
      <trkpt lat="43.851619" lon="1.729264">
        <ele>153.6</ele>
        <time>2015-08-25T08:49:39Z</time>
      </trkpt>
      <trkpt lat="43.851695" lon="1.729155">
        <ele>152.2</ele>
        <time>2015-08-25T08:49:45Z</time>
      </trkpt>
      <trkpt lat="43.851789" lon="1.729115">
        <ele>154.4</ele>
        <time>2015-08-25T08:49:50Z</time>
      </trkpt>
      <trkpt lat="43.851887" lon="1.729059">
        <ele>157.1</ele>
        <time>2015-08-25T08:49:55Z</time>
      </trkpt>
      <trkpt lat="43.851982" lon="1.728994">
        <ele>157.9</ele>
        <time>2015-08-25T08:49:59Z</time>
      </trkpt>
      <trkpt lat="43.852079" lon="1.728940">
        <ele>158.6</ele>
        <time>2015-08-25T08:50:03Z</time>
      </trkpt>
      <trkpt lat="43.852191" lon="1.728890">
        <ele>161.8</ele>
        <time>2015-08-25T08:50:08Z</time>
      </trkpt>
      <trkpt lat="43.852286" lon="1.728852">
        <ele>162.6</ele>
        <time>2015-08-25T08:50:12Z</time>
      </trkpt>
      <trkpt lat="43.852371" lon="1.728816">
        <ele>163.9</ele>
        <time>2015-08-25T08:50:16Z</time>
      </trkpt>
      <trkpt lat="43.852476" lon="1.728776">
        <ele>165.2</ele>
        <time>2015-08-25T08:50:22Z</time>
      </trkpt>
      <trkpt lat="43.852578" lon="1.728733">
        <ele>165.6</ele>
        <time>2015-08-25T08:50:27Z</time>
      </trkpt>
      <trkpt lat="43.852674" lon="1.728663">
        <ele>164.9</ele>
        <time>2015-08-25T08:50:31Z</time>
      </trkpt>
      <trkpt lat="43.852759" lon="1.728601">
        <ele>165.1</ele>
        <time>2015-08-25T08:50:36Z</time>
      </trkpt>
      <trkpt lat="43.852873" lon="1.728530">
        <ele>164.5</ele>
        <time>2015-08-25T08:50:41Z</time>
      </trkpt>
      <trkpt lat="43.852979" lon="1.728471">
        <ele>164.4</ele>
        <time>2015-08-25T08:50:46Z</time>
      </trkpt>
      <trkpt lat="43.853097" lon="1.728418">
        <ele>165.0</ele>
        <time>2015-08-25T08:50:51Z</time>
      </trkpt>
      <trkpt lat="43.853192" lon="1.728360">
        <ele>165.8</ele>
        <time>2015-08-25T08:50:56Z</time>
      </trkpt>
      <trkpt lat="43.853284" lon="1.728317">
        <ele>165.7</ele>
        <time>2015-08-25T08:51:01Z</time>
      </trkpt>
      <trkpt lat="43.853386" lon="1.728229">
        <ele>164.6</ele>
        <time>2015-08-25T08:51:07Z</time>
      </trkpt>
      <trkpt lat="43.853484" lon="1.728172">
        <ele>164.0</ele>
        <time>2015-08-25T08:51:12Z</time>
      </trkpt>
      <trkpt lat="43.853585" lon="1.728132">
        <ele>164.3</ele>
        <time>2015-08-25T08:51:17Z</time>
      </trkpt>
      <trkpt lat="43.853705" lon="1.728082">
        <ele>163.2</ele>
        <time>2015-08-25T08:51:22Z</time>
      </trkpt>
      <trkpt lat="43.853812" lon="1.728052">
        <ele>163.8</ele>
        <time>2015-08-25T08:51:27Z</time>
      </trkpt>
      <trkpt lat="43.853912" lon="1.728029">
        <ele>164.8</ele>
        <time>2015-08-25T08:51:32Z</time>
      </trkpt>
      <trkpt lat="43.854021" lon="1.727999">
        <ele>165.1</ele>
        <time>2015-08-25T08:51:37Z</time>
      </trkpt>
      <trkpt lat="43.854125" lon="1.727982">
        <ele>166.3</ele>
        <time>2015-08-25T08:51:42Z</time>
      </trkpt>
      <trkpt lat="43.854221" lon="1.727970">
        <ele>166.7</ele>
        <time>2015-08-25T08:51:47Z</time>
      </trkpt>
      <trkpt lat="43.854321" lon="1.727930">
        <ele>167.8</ele>
        <time>2015-08-25T08:51:53Z</time>
      </trkpt>
      <trkpt lat="43.854419" lon="1.727874">
        <ele>169.4</ele>
        <time>2015-08-25T08:51:58Z</time>
      </trkpt>
      <trkpt lat="43.854499" lon="1.727783">
        <ele>170.7</ele>
        <time>2015-08-25T08:52:03Z</time>
      </trkpt>
      <trkpt lat="43.854642" lon="1.727697">
        <ele>169.7</ele>
        <time>2015-08-25T08:52:17Z</time>
      </trkpt>
      <trkpt lat="43.854743" lon="1.727639">
        <ele>170.5</ele>
        <time>2015-08-25T08:52:45Z</time>
      </trkpt>
      <trkpt lat="43.854829" lon="1.727586">
        <ele>171.2</ele>
        <time>2015-08-25T08:52:51Z</time>
      </trkpt>
      <trkpt lat="43.854902" lon="1.727519">
        <ele>172.9</ele>
        <time>2015-08-25T08:53:02Z</time>
      </trkpt>
      <trkpt lat="43.854900" lon="1.727522">
        <ele>171.1</ele>
        <time>2015-08-25T08:54:07Z</time>
      </trkpt>
      <trkpt lat="43.854996" lon="1.727449">
        <ele>170.9</ele>
        <time>2015-08-25T08:54:20Z</time>
      </trkpt>
      <trkpt lat="43.855105" lon="1.727365">
        <ele>171.1</ele>
        <time>2015-08-25T08:54:37Z</time>
      </trkpt>
      <trkpt lat="43.855195" lon="1.727314">
        <ele>170.9</ele>
        <time>2015-08-25T08:54:43Z</time>
      </trkpt>
      <trkpt lat="43.855292" lon="1.727285">
        <ele>171.4</ele>
        <time>2015-08-25T08:54:49Z</time>
      </trkpt>
      <trkpt lat="43.855394" lon="1.727265">
        <ele>171.4</ele>
        <time>2015-08-25T08:54:55Z</time>
      </trkpt>
      <trkpt lat="43.855506" lon="1.727233">
        <ele>171.9</ele>
        <time>2015-08-25T08:55:01Z</time>
      </trkpt>
      <trkpt lat="43.855605" lon="1.727200">
        <ele>172.4</ele>
        <time>2015-08-25T08:55:07Z</time>
      </trkpt>
      <trkpt lat="43.855699" lon="1.727169">
        <ele>173.3</ele>
        <time>2015-08-25T08:55:12Z</time>
      </trkpt>
      <trkpt lat="43.855793" lon="1.727149">
        <ele>172.5</ele>
        <time>2015-08-25T08:55:18Z</time>
      </trkpt>
      <trkpt lat="43.855898" lon="1.727118">
        <ele>172.5</ele>
        <time>2015-08-25T08:55:24Z</time>
      </trkpt>
      <trkpt lat="43.855997" lon="1.727092">
        <ele>172.9</ele>
        <time>2015-08-25T08:55:30Z</time>
      </trkpt>
      <trkpt lat="43.856102" lon="1.727056">
        <ele>174.3</ele>
        <time>2015-08-25T08:55:36Z</time>
      </trkpt>
      <trkpt lat="43.856194" lon="1.726991">
        <ele>175.6</ele>
        <time>2015-08-25T08:55:42Z</time>
      </trkpt>
      <trkpt lat="43.856291" lon="1.726923">
        <ele>177.2</ele>
        <time>2015-08-25T08:55:48Z</time>
      </trkpt>
      <trkpt lat="43.856381" lon="1.726877">
        <ele>179.4</ele>
        <time>2015-08-25T08:55:54Z</time>
      </trkpt>
      <trkpt lat="43.856475" lon="1.726797">
        <ele>181.2</ele>
        <time>2015-08-25T08:56:00Z</time>
      </trkpt>
      <trkpt lat="43.856553" lon="1.726707">
        <ele>182.9</ele>
        <time>2015-08-25T08:56:05Z</time>
      </trkpt>
      <trkpt lat="43.856627" lon="1.726634">
        <ele>185.1</ele>
        <time>2015-08-25T08:56:10Z</time>
      </trkpt>
      <trkpt lat="43.856708" lon="1.726560">
        <ele>186.7</ele>
        <time>2015-08-25T08:56:15Z</time>
      </trkpt>
      <trkpt lat="43.856805" lon="1.726489">
        <ele>187.8</ele>
        <time>2015-08-25T08:56:20Z</time>
      </trkpt>
      <trkpt lat="43.856895" lon="1.726439">
        <ele>188.7</ele>
        <time>2015-08-25T08:56:25Z</time>
      </trkpt>
      <trkpt lat="43.856986" lon="1.726336">
        <ele>191.4</ele>
        <time>2015-08-25T08:56:31Z</time>
      </trkpt>
      <trkpt lat="43.857071" lon="1.726246">
        <ele>192.6</ele>
        <time>2015-08-25T08:56:37Z</time>
      </trkpt>
      <trkpt lat="43.857149" lon="1.726159">
        <ele>193.5</ele>
        <time>2015-08-25T08:56:42Z</time>
      </trkpt>
      <trkpt lat="43.857228" lon="1.726065">
        <ele>194.4</ele>
        <time>2015-08-25T08:56:47Z</time>
      </trkpt>
      <trkpt lat="43.857311" lon="1.725972">
        <ele>195.3</ele>
        <time>2015-08-25T08:56:53Z</time>
      </trkpt>
      <trkpt lat="43.857384" lon="1.725894">
        <ele>195.9</ele>
        <time>2015-08-25T08:56:58Z</time>
      </trkpt>
      <trkpt lat="43.857464" lon="1.725788">
        <ele>197.2</ele>
        <time>2015-08-25T08:57:04Z</time>
      </trkpt>
      <trkpt lat="43.857547" lon="1.725682">
        <ele>198.0</ele>
        <time>2015-08-25T08:57:10Z</time>
      </trkpt>
      <trkpt lat="43.857619" lon="1.725584">
        <ele>198.9</ele>
        <time>2015-08-25T08:57:15Z</time>
      </trkpt>
      <trkpt lat="43.857701" lon="1.725487">
        <ele>199.9</ele>
        <time>2015-08-25T08:57:21Z</time>
      </trkpt>
      <trkpt lat="43.857773" lon="1.725382">
        <ele>200.6</ele>
        <time>2015-08-25T08:57:26Z</time>
      </trkpt>
      <trkpt lat="43.857862" lon="1.725279">
        <ele>200.4</ele>
        <time>2015-08-25T08:57:32Z</time>
      </trkpt>
      <trkpt lat="43.857938" lon="1.725189">
        <ele>201.4</ele>
        <time>2015-08-25T08:57:38Z</time>
      </trkpt>
      <trkpt lat="43.858030" lon="1.725083">
        <ele>203.2</ele>
        <time>2015-08-25T08:57:45Z</time>
      </trkpt>
      <trkpt lat="43.858111" lon="1.724975">
        <ele>204.8</ele>
        <time>2015-08-25T08:57:52Z</time>
      </trkpt>
      <trkpt lat="43.858189" lon="1.724896">
        <ele>206.4</ele>
        <time>2015-08-25T08:58:04Z</time>
      </trkpt>
      <trkpt lat="43.858258" lon="1.724793">
        <ele>208.3</ele>
        <time>2015-08-25T08:58:17Z</time>
      </trkpt>
      <trkpt lat="43.858331" lon="1.724691">
        <ele>209.9</ele>
        <time>2015-08-25T08:58:30Z</time>
      </trkpt>
      <trkpt lat="43.858397" lon="1.724597">
        <ele>212.9</ele>
        <time>2015-08-25T08:58:43Z</time>
      </trkpt>
      <trkpt lat="43.858484" lon="1.724518">
        <ele>214.5</ele>
        <time>2015-08-25T08:58:55Z</time>
      </trkpt>
      <trkpt lat="43.858555" lon="1.724425">
        <ele>216.0</ele>
        <time>2015-08-25T08:59:09Z</time>
      </trkpt>
      <trkpt lat="43.858566" lon="1.724341">
        <ele>219.3</ele>
        <time>2015-08-25T09:00:06Z</time>
      </trkpt>
      <trkpt lat="43.858526" lon="1.724201">
        <ele>218.9</ele>
        <time>2015-08-25T09:00:16Z</time>
      </trkpt>
      <trkpt lat="43.858475" lon="1.724086">
        <ele>217.7</ele>
        <time>2015-08-25T09:00:21Z</time>
      </trkpt>
      <trkpt lat="43.858408" lon="1.723981">
        <ele>217.4</ele>
        <time>2015-08-25T09:00:26Z</time>
      </trkpt>
      <trkpt lat="43.858337" lon="1.723883">
        <ele>217.1</ele>
        <time>2015-08-25T09:00:30Z</time>
      </trkpt>
      <trkpt lat="43.858271" lon="1.723785">
        <ele>216.9</ele>
        <time>2015-08-25T09:00:34Z</time>
      </trkpt>
      <trkpt lat="43.858193" lon="1.723693">
        <ele>218.0</ele>
        <time>2015-08-25T09:00:39Z</time>
      </trkpt>
      <trkpt lat="43.858109" lon="1.723604">
        <ele>219.8</ele>
        <time>2015-08-25T09:00:44Z</time>
      </trkpt>
      <trkpt lat="43.858057" lon="1.723494">
        <ele>222.6</ele>
        <time>2015-08-25T09:00:49Z</time>
      </trkpt>
      <trkpt lat="43.858032" lon="1.723368">
        <ele>223.6</ele>
        <time>2015-08-25T09:00:53Z</time>
      </trkpt>
      <trkpt lat="43.858010" lon="1.723236">
        <ele>223.8</ele>
        <time>2015-08-25T09:00:57Z</time>
      </trkpt>
      <trkpt lat="43.857992" lon="1.723078">
        <ele>224.2</ele>
        <time>2015-08-25T09:01:02Z</time>
      </trkpt>
      <trkpt lat="43.858004" lon="1.722926">
        <ele>224.4</ele>
        <time>2015-08-25T09:01:08Z</time>
      </trkpt>
      <trkpt lat="43.858035" lon="1.722777">
        <ele>224.6</ele>
        <time>2015-08-25T09:01:14Z</time>
      </trkpt>
      <trkpt lat="43.858082" lon="1.722644">
        <ele>224.1</ele>
        <time>2015-08-25T09:01:19Z</time>
      </trkpt>
      <trkpt lat="43.858115" lon="1.722517">
        <ele>224.1</ele>
        <time>2015-08-25T09:01:24Z</time>
      </trkpt>
      <trkpt lat="43.858163" lon="1.722392">
        <ele>223.7</ele>
        <time>2015-08-25T09:01:28Z</time>
      </trkpt>
      <trkpt lat="43.858212" lon="1.722289">
        <ele>222.6</ele>
        <time>2015-08-25T09:01:32Z</time>
      </trkpt>
      <trkpt lat="43.858255" lon="1.722244">
        <ele>222.9</ele>
        <time>2015-08-25T09:02:28Z</time>
      </trkpt>
      <trkpt lat="43.858258" lon="1.722218">
        <ele>221.0</ele>
        <time>2015-08-25T09:05:10Z</time>
      </trkpt>
      <trkpt lat="43.858298" lon="1.722080">
        <ele>220.3</ele>
        <time>2015-08-25T09:05:14Z</time>
      </trkpt>
      <trkpt lat="43.858286" lon="1.721915">
        <ele>218.8</ele>
        <time>2015-08-25T09:05:18Z</time>
      </trkpt>
      <trkpt lat="43.858271" lon="1.721784">
        <ele>216.4</ele>
        <time>2015-08-25T09:05:21Z</time>
      </trkpt>
      <trkpt lat="43.858255" lon="1.721656">
        <ele>214.4</ele>
        <time>2015-08-25T09:05:24Z</time>
      </trkpt>
      <trkpt lat="43.858235" lon="1.721517">
        <ele>211.6</ele>
        <time>2015-08-25T09:05:28Z</time>
      </trkpt>
      <trkpt lat="43.858162" lon="1.721503">
        <ele>208.5</ele>
        <time>2015-08-25T09:05:34Z</time>
      </trkpt>
      <trkpt lat="43.858084" lon="1.721580">
        <ele>207.9</ele>
        <time>2015-08-25T09:05:38Z</time>
      </trkpt>
      <trkpt lat="43.857993" lon="1.721650">
        <ele>207.0</ele>
        <time>2015-08-25T09:05:41Z</time>
      </trkpt>
      <trkpt lat="43.857869" lon="1.721742">
        <ele>206.9</ele>
        <time>2015-08-25T09:05:44Z</time>
      </trkpt>
      <trkpt lat="43.857783" lon="1.721815">
        <ele>207.4</ele>
        <time>2015-08-25T09:05:46Z</time>
      </trkpt>
      <trkpt lat="43.857704" lon="1.721898">
        <ele>207.2</ele>
        <time>2015-08-25T09:05:48Z</time>
      </trkpt>
      <trkpt lat="43.857628" lon="1.721991">
        <ele>207.4</ele>
        <time>2015-08-25T09:05:50Z</time>
      </trkpt>
      <trkpt lat="43.857556" lon="1.722074">
        <ele>207.4</ele>
        <time>2015-08-25T09:05:52Z</time>
      </trkpt>
      <trkpt lat="43.857460" lon="1.722202">
        <ele>207.1</ele>
        <time>2015-08-25T09:05:55Z</time>
      </trkpt>
      <trkpt lat="43.857359" lon="1.722329">
        <ele>207.7</ele>
        <time>2015-08-25T09:05:58Z</time>
      </trkpt>
      <trkpt lat="43.857245" lon="1.722438">
        <ele>207.1</ele>
        <time>2015-08-25T09:06:01Z</time>
      </trkpt>
      <trkpt lat="43.857165" lon="1.722500">
        <ele>206.8</ele>
        <time>2015-08-25T09:06:03Z</time>
      </trkpt>
      <trkpt lat="43.857077" lon="1.722553">
        <ele>206.2</ele>
        <time>2015-08-25T09:06:05Z</time>
      </trkpt>
      <trkpt lat="43.856983" lon="1.722582">
        <ele>206.0</ele>
        <time>2015-08-25T09:06:07Z</time>
      </trkpt>
      <trkpt lat="43.856883" lon="1.722597">
        <ele>206.1</ele>
        <time>2015-08-25T09:06:09Z</time>
      </trkpt>
      <trkpt lat="43.856779" lon="1.722607">
        <ele>205.3</ele>
        <time>2015-08-25T09:06:11Z</time>
      </trkpt>
      <trkpt lat="43.856673" lon="1.722598">
        <ele>204.5</ele>
        <time>2015-08-25T09:06:13Z</time>
      </trkpt>
      <trkpt lat="43.856570" lon="1.722576">
        <ele>204.0</ele>
        <time>2015-08-25T09:06:15Z</time>
      </trkpt>
      <trkpt lat="43.856468" lon="1.722560">
        <ele>204.1</ele>
        <time>2015-08-25T09:06:17Z</time>
      </trkpt>
      <trkpt lat="43.856366" lon="1.722552">
        <ele>204.4</ele>
        <time>2015-08-25T09:06:19Z</time>
      </trkpt>
      <trkpt lat="43.856266" lon="1.722537">
        <ele>203.9</ele>
        <time>2015-08-25T09:06:21Z</time>
      </trkpt>
      <trkpt lat="43.856164" lon="1.722522">
        <ele>203.2</ele>
        <time>2015-08-25T09:06:23Z</time>
      </trkpt>
      <trkpt lat="43.856057" lon="1.722487">
        <ele>201.7</ele>
        <time>2015-08-25T09:06:25Z</time>
      </trkpt>
      <trkpt lat="43.855943" lon="1.722420">
        <ele>200.4</ele>
        <time>2015-08-25T09:06:27Z</time>
      </trkpt>
      <trkpt lat="43.855837" lon="1.722334">
        <ele>198.8</ele>
        <time>2015-08-25T09:06:29Z</time>
      </trkpt>
      <trkpt lat="43.855736" lon="1.722244">
        <ele>197.4</ele>
        <time>2015-08-25T09:06:31Z</time>
      </trkpt>
      <trkpt lat="43.855636" lon="1.722153">
        <ele>195.8</ele>
        <time>2015-08-25T09:06:33Z</time>
      </trkpt>
      <trkpt lat="43.855526" lon="1.722066">
        <ele>194.5</ele>
        <time>2015-08-25T09:06:35Z</time>
      </trkpt>
      <trkpt lat="43.855399" lon="1.721973">
        <ele>193.4</ele>
        <time>2015-08-25T09:06:37Z</time>
      </trkpt>
      <trkpt lat="43.855274" lon="1.721876">
        <ele>193.5</ele>
        <time>2015-08-25T09:06:39Z</time>
      </trkpt>
      <trkpt lat="43.855154" lon="1.721773">
        <ele>193.6</ele>
        <time>2015-08-25T09:06:41Z</time>
      </trkpt>
      <trkpt lat="43.855042" lon="1.721670">
        <ele>193.2</ele>
        <time>2015-08-25T09:06:43Z</time>
      </trkpt>
      <trkpt lat="43.854946" lon="1.721559">
        <ele>193.7</ele>
        <time>2015-08-25T09:06:45Z</time>
      </trkpt>
      <trkpt lat="43.854874" lon="1.721459">
        <ele>194.4</ele>
        <time>2015-08-25T09:06:47Z</time>
      </trkpt>
      <trkpt lat="43.854805" lon="1.721347">
        <ele>195.3</ele>
        <time>2015-08-25T09:06:50Z</time>
      </trkpt>
      <trkpt lat="43.854747" lon="1.721242">
        <ele>196.6</ele>
        <time>2015-08-25T09:06:53Z</time>
      </trkpt>
      <trkpt lat="43.854693" lon="1.721125">
        <ele>197.1</ele>
        <time>2015-08-25T09:06:56Z</time>
      </trkpt>
      <trkpt lat="43.854637" lon="1.721002">
        <ele>198.7</ele>
        <time>2015-08-25T09:07:00Z</time>
      </trkpt>
      <trkpt lat="43.854589" lon="1.720878">
        <ele>199.4</ele>
        <time>2015-08-25T09:07:04Z</time>
      </trkpt>
      <trkpt lat="43.854542" lon="1.720755">
        <ele>201.4</ele>
        <time>2015-08-25T09:07:09Z</time>
      </trkpt>
      <trkpt lat="43.854502" lon="1.720632">
        <ele>203.2</ele>
        <time>2015-08-25T09:07:14Z</time>
      </trkpt>
      <trkpt lat="43.854458" lon="1.720498">
        <ele>205.5</ele>
        <time>2015-08-25T09:07:20Z</time>
      </trkpt>
      <trkpt lat="43.854411" lon="1.720351">
        <ele>207.0</ele>
        <time>2015-08-25T09:07:24Z</time>
      </trkpt>
      <trkpt lat="43.854377" lon="1.720223">
        <ele>208.3</ele>
        <time>2015-08-25T09:07:27Z</time>
      </trkpt>
      <trkpt lat="43.854347" lon="1.720087">
        <ele>209.2</ele>
        <time>2015-08-25T09:07:30Z</time>
      </trkpt>
      <trkpt lat="43.854320" lon="1.719954">
        <ele>209.7</ele>
        <time>2015-08-25T09:07:34Z</time>
      </trkpt>
      <trkpt lat="43.854303" lon="1.719813">
        <ele>211.1</ele>
        <time>2015-08-25T09:07:39Z</time>
      </trkpt>
      <trkpt lat="43.854291" lon="1.719680">
        <ele>213.2</ele>
        <time>2015-08-25T09:07:44Z</time>
      </trkpt>
      <trkpt lat="43.854312" lon="1.719533">
        <ele>215.0</ele>
        <time>2015-08-25T09:07:49Z</time>
      </trkpt>
      <trkpt lat="43.854335" lon="1.719391">
        <ele>215.4</ele>
        <time>2015-08-25T09:07:53Z</time>
      </trkpt>
      <trkpt lat="43.854358" lon="1.719276">
        <ele>215.6</ele>
        <time>2015-08-25T09:07:56Z</time>
      </trkpt>
      <trkpt lat="43.854388" lon="1.719146">
        <ele>215.7</ele>
        <time>2015-08-25T09:07:59Z</time>
      </trkpt>
      <trkpt lat="43.854431" lon="1.718994">
        <ele>214.8</ele>
        <time>2015-08-25T09:08:02Z</time>
      </trkpt>
      <trkpt lat="43.854491" lon="1.718838">
        <ele>214.2</ele>
        <time>2015-08-25T09:08:05Z</time>
      </trkpt>
      <trkpt lat="43.854551" lon="1.718693">
        <ele>213.6</ele>
        <time>2015-08-25T09:08:08Z</time>
      </trkpt>
      <trkpt lat="43.854589" lon="1.718556">
        <ele>213.0</ele>
        <time>2015-08-25T09:08:11Z</time>
      </trkpt>
      <trkpt lat="43.854574" lon="1.718433">
        <ele>212.4</ele>
        <time>2015-08-25T09:08:15Z</time>
      </trkpt>
      <trkpt lat="43.854479" lon="1.718361">
        <ele>211.4</ele>
        <time>2015-08-25T09:08:20Z</time>
      </trkpt>
      <trkpt lat="43.854370" lon="1.718389">
        <ele>210.8</ele>
        <time>2015-08-25T09:08:25Z</time>
      </trkpt>
      <trkpt lat="43.854283" lon="1.718400">
        <ele>210.4</ele>
        <time>2015-08-25T09:08:28Z</time>
      </trkpt>
      <trkpt lat="43.854172" lon="1.718418">
        <ele>209.6</ele>
        <time>2015-08-25T09:08:32Z</time>
      </trkpt>
      <trkpt lat="43.854089" lon="1.718370">
        <ele>207.6</ele>
        <time>2015-08-25T09:08:37Z</time>
      </trkpt>
      <trkpt lat="43.854073" lon="1.718367">
        <ele>202.4</ele>
        <time>2015-08-25T09:10:41Z</time>
      </trkpt>
      <trkpt lat="43.853965" lon="1.718337">
        <ele>201.7</ele>
        <time>2015-08-25T09:10:46Z</time>
      </trkpt>
      <trkpt lat="43.853862" lon="1.718319">
        <ele>200.9</ele>
        <time>2015-08-25T09:10:49Z</time>
      </trkpt>
      <trkpt lat="43.853726" lon="1.718292">
        <ele>200.3</ele>
        <time>2015-08-25T09:10:52Z</time>
      </trkpt>
      <trkpt lat="43.853623" lon="1.718276">
        <ele>199.5</ele>
        <time>2015-08-25T09:10:54Z</time>
      </trkpt>
      <trkpt lat="43.853511" lon="1.718248">
        <ele>198.6</ele>
        <time>2015-08-25T09:10:56Z</time>
      </trkpt>
      <trkpt lat="43.853396" lon="1.718229">
        <ele>197.6</ele>
        <time>2015-08-25T09:10:58Z</time>
      </trkpt>
      <trkpt lat="43.853284" lon="1.718212">
        <ele>197.2</ele>
        <time>2015-08-25T09:11:00Z</time>
      </trkpt>
      <trkpt lat="43.853179" lon="1.718183">
        <ele>197.0</ele>
        <time>2015-08-25T09:11:02Z</time>
      </trkpt>
      <trkpt lat="43.853086" lon="1.718136">
        <ele>196.8</ele>
        <time>2015-08-25T09:11:04Z</time>
      </trkpt>
      <trkpt lat="43.852994" lon="1.718085">
        <ele>196.7</ele>
        <time>2015-08-25T09:11:06Z</time>
      </trkpt>
      <trkpt lat="43.852909" lon="1.718033">
        <ele>195.7</ele>
        <time>2015-08-25T09:11:08Z</time>
      </trkpt>
      <trkpt lat="43.852822" lon="1.717996">
        <ele>195.6</ele>
        <time>2015-08-25T09:11:10Z</time>
      </trkpt>
      <trkpt lat="43.852698" lon="1.717963">
        <ele>195.4</ele>
        <time>2015-08-25T09:11:13Z</time>
      </trkpt>
      <trkpt lat="43.852559" lon="1.717970">
        <ele>194.9</ele>
        <time>2015-08-25T09:11:16Z</time>
      </trkpt>
      <trkpt lat="43.852459" lon="1.717983">
        <ele>194.6</ele>
        <time>2015-08-25T09:11:18Z</time>
      </trkpt>
      <trkpt lat="43.852360" lon="1.717998">
        <ele>194.5</ele>
        <time>2015-08-25T09:11:20Z</time>
      </trkpt>
      <trkpt lat="43.852261" lon="1.718027">
        <ele>194.4</ele>
        <time>2015-08-25T09:11:22Z</time>
      </trkpt>
      <trkpt lat="43.852159" lon="1.718043">
        <ele>194.9</ele>
        <time>2015-08-25T09:11:24Z</time>
      </trkpt>
      <trkpt lat="43.852058" lon="1.718054">
        <ele>195.7</ele>
        <time>2015-08-25T09:11:26Z</time>
      </trkpt>
      <trkpt lat="43.851956" lon="1.718067">
        <ele>196.0</ele>
        <time>2015-08-25T09:11:28Z</time>
      </trkpt>
      <trkpt lat="43.851851" lon="1.718077">
        <ele>195.7</ele>
        <time>2015-08-25T09:11:30Z</time>
      </trkpt>
      <trkpt lat="43.851745" lon="1.718097">
        <ele>195.4</ele>
        <time>2015-08-25T09:11:32Z</time>
      </trkpt>
      <trkpt lat="43.851641" lon="1.718117">
        <ele>195.1</ele>
        <time>2015-08-25T09:11:34Z</time>
      </trkpt>
      <trkpt lat="43.851531" lon="1.718149">
        <ele>194.5</ele>
        <time>2015-08-25T09:11:36Z</time>
      </trkpt>
      <trkpt lat="43.851420" lon="1.718182">
        <ele>194.1</ele>
        <time>2015-08-25T09:11:38Z</time>
      </trkpt>
      <trkpt lat="43.851309" lon="1.718200">
        <ele>194.0</ele>
        <time>2015-08-25T09:11:40Z</time>
      </trkpt>
      <trkpt lat="43.851200" lon="1.718217">
        <ele>194.2</ele>
        <time>2015-08-25T09:11:42Z</time>
      </trkpt>
      <trkpt lat="43.851094" lon="1.718233">
        <ele>193.8</ele>
        <time>2015-08-25T09:11:44Z</time>
      </trkpt>
      <trkpt lat="43.850980" lon="1.718257">
        <ele>194.1</ele>
        <time>2015-08-25T09:11:46Z</time>
      </trkpt>
      <trkpt lat="43.850856" lon="1.718294">
        <ele>194.7</ele>
        <time>2015-08-25T09:11:48Z</time>
      </trkpt>
      <trkpt lat="43.850735" lon="1.718316">
        <ele>195.7</ele>
        <time>2015-08-25T09:11:50Z</time>
      </trkpt>
      <trkpt lat="43.850617" lon="1.718337">
        <ele>196.0</ele>
        <time>2015-08-25T09:11:52Z</time>
      </trkpt>
      <trkpt lat="43.850503" lon="1.718360">
        <ele>196.0</ele>
        <time>2015-08-25T09:11:54Z</time>
      </trkpt>
      <trkpt lat="43.850394" lon="1.718375">
        <ele>195.6</ele>
        <time>2015-08-25T09:11:56Z</time>
      </trkpt>
      <trkpt lat="43.850289" lon="1.718388">
        <ele>195.6</ele>
        <time>2015-08-25T09:11:58Z</time>
      </trkpt>
      <trkpt lat="43.850184" lon="1.718400">
        <ele>194.6</ele>
        <time>2015-08-25T09:12:00Z</time>
      </trkpt>
      <trkpt lat="43.850079" lon="1.718410">
        <ele>194.6</ele>
        <time>2015-08-25T09:12:02Z</time>
      </trkpt>
      <trkpt lat="43.849977" lon="1.718416">
        <ele>194.4</ele>
        <time>2015-08-25T09:12:04Z</time>
      </trkpt>
      <trkpt lat="43.849879" lon="1.718421">
        <ele>194.3</ele>
        <time>2015-08-25T09:12:06Z</time>
      </trkpt>
      <trkpt lat="43.849780" lon="1.718428">
        <ele>194.6</ele>
        <time>2015-08-25T09:12:08Z</time>
      </trkpt>
      <trkpt lat="43.849684" lon="1.718451">
        <ele>194.9</ele>
        <time>2015-08-25T09:12:10Z</time>
      </trkpt>
      <trkpt lat="43.849595" lon="1.718479">
        <ele>194.2</ele>
        <time>2015-08-25T09:12:12Z</time>
      </trkpt>
      <trkpt lat="43.849485" lon="1.718550">
        <ele>193.5</ele>
        <time>2015-08-25T09:12:15Z</time>
      </trkpt>
      <trkpt lat="43.849403" lon="1.718644">
        <ele>194.4</ele>
        <time>2015-08-25T09:12:18Z</time>
      </trkpt>
      <trkpt lat="43.849328" lon="1.718736">
        <ele>194.9</ele>
        <time>2015-08-25T09:12:21Z</time>
      </trkpt>
      <trkpt lat="43.849249" lon="1.718819">
        <ele>195.8</ele>
        <time>2015-08-25T09:12:24Z</time>
      </trkpt>
      <trkpt lat="43.849159" lon="1.718891">
        <ele>197.0</ele>
        <time>2015-08-25T09:12:27Z</time>
      </trkpt>
      <trkpt lat="43.849065" lon="1.718969">
        <ele>197.4</ele>
        <time>2015-08-25T09:12:30Z</time>
      </trkpt>
      <trkpt lat="43.848974" lon="1.719033">
        <ele>198.4</ele>
        <time>2015-08-25T09:12:33Z</time>
      </trkpt>
      <trkpt lat="43.848877" lon="1.719097">
        <ele>198.9</ele>
        <time>2015-08-25T09:12:36Z</time>
      </trkpt>
      <trkpt lat="43.848776" lon="1.719159">
        <ele>199.3</ele>
        <time>2015-08-25T09:12:39Z</time>
      </trkpt>
      <trkpt lat="43.848674" lon="1.719221">
        <ele>199.3</ele>
        <time>2015-08-25T09:12:42Z</time>
      </trkpt>
      <trkpt lat="43.848567" lon="1.719277">
        <ele>199.1</ele>
        <time>2015-08-25T09:12:45Z</time>
      </trkpt>
      <trkpt lat="43.848459" lon="1.719326">
        <ele>199.0</ele>
        <time>2015-08-25T09:12:48Z</time>
      </trkpt>
      <trkpt lat="43.848361" lon="1.719365">
        <ele>198.8</ele>
        <time>2015-08-25T09:12:51Z</time>
      </trkpt>
      <trkpt lat="43.848270" lon="1.719411">
        <ele>198.1</ele>
        <time>2015-08-25T09:12:54Z</time>
      </trkpt>
      <trkpt lat="43.848170" lon="1.719465">
        <ele>197.9</ele>
        <time>2015-08-25T09:12:58Z</time>
      </trkpt>
      <trkpt lat="43.848091" lon="1.719517">
        <ele>197.9</ele>
        <time>2015-08-25T09:13:05Z</time>
      </trkpt>
      <trkpt lat="43.848093" lon="1.719556">
        <ele>201.3</ele>
        <time>2015-08-25T09:14:33Z</time>
      </trkpt>
      <trkpt lat="43.848032" lon="1.719546">
        <ele>202.6</ele>
        <time>2015-08-25T09:15:12Z</time>
      </trkpt>
      <trkpt lat="43.847938" lon="1.719590">
        <ele>202.4</ele>
        <time>2015-08-25T09:15:16Z</time>
      </trkpt>
      <trkpt lat="43.847834" lon="1.719614">
        <ele>202.4</ele>
        <time>2015-08-25T09:15:20Z</time>
      </trkpt>
      <trkpt lat="43.847726" lon="1.719649">
        <ele>202.4</ele>
        <time>2015-08-25T09:15:25Z</time>
      </trkpt>
      <trkpt lat="43.847617" lon="1.719666">
        <ele>202.3</ele>
        <time>2015-08-25T09:15:30Z</time>
      </trkpt>
      <trkpt lat="43.847513" lon="1.719684">
        <ele>202.1</ele>
        <time>2015-08-25T09:15:35Z</time>
      </trkpt>
      <trkpt lat="43.847403" lon="1.719698">
        <ele>201.2</ele>
        <time>2015-08-25T09:15:40Z</time>
      </trkpt>
      <trkpt lat="43.847289" lon="1.719730">
        <ele>200.9</ele>
        <time>2015-08-25T09:15:45Z</time>
      </trkpt>
      <trkpt lat="43.847169" lon="1.719737">
        <ele>199.5</ele>
        <time>2015-08-25T09:15:49Z</time>
      </trkpt>
      <trkpt lat="43.847069" lon="1.719751">
        <ele>199.3</ele>
        <time>2015-08-25T09:15:53Z</time>
      </trkpt>
      <trkpt lat="43.846969" lon="1.719766">
        <ele>199.5</ele>
        <time>2015-08-25T09:15:56Z</time>
      </trkpt>
      <trkpt lat="43.846857" lon="1.719767">
        <ele>199.6</ele>
        <time>2015-08-25T09:15:59Z</time>
      </trkpt>
      <trkpt lat="43.846750" lon="1.719756">
        <ele>199.2</ele>
        <time>2015-08-25T09:16:02Z</time>
      </trkpt>
      <trkpt lat="43.846645" lon="1.719745">
        <ele>199.4</ele>
        <time>2015-08-25T09:16:05Z</time>
      </trkpt>
      <trkpt lat="43.846537" lon="1.719733">
        <ele>199.4</ele>
        <time>2015-08-25T09:16:08Z</time>
      </trkpt>
      <trkpt lat="43.846441" lon="1.719719">
        <ele>199.4</ele>
        <time>2015-08-25T09:16:11Z</time>
      </trkpt>
      <trkpt lat="43.846349" lon="1.719693">
        <ele>200.2</ele>
        <time>2015-08-25T09:16:14Z</time>
      </trkpt>
      <trkpt lat="43.846247" lon="1.719663">
        <ele>201.1</ele>
        <time>2015-08-25T09:16:19Z</time>
      </trkpt>
      <trkpt lat="43.846154" lon="1.719624">
        <ele>201.7</ele>
        <time>2015-08-25T09:16:23Z</time>
      </trkpt>
      <trkpt lat="43.846053" lon="1.719590">
        <ele>202.1</ele>
        <time>2015-08-25T09:16:27Z</time>
      </trkpt>
      <trkpt lat="43.845948" lon="1.719576">
        <ele>202.8</ele>
        <time>2015-08-25T09:16:31Z</time>
      </trkpt>
      <trkpt lat="43.845835" lon="1.719603">
        <ele>204.4</ele>
        <time>2015-08-25T09:16:35Z</time>
      </trkpt>
      <trkpt lat="43.845737" lon="1.719624">
        <ele>204.3</ele>
        <time>2015-08-25T09:16:39Z</time>
      </trkpt>
      <trkpt lat="43.845636" lon="1.719645">
        <ele>205.1</ele>
        <time>2015-08-25T09:16:43Z</time>
      </trkpt>
      <trkpt lat="43.845530" lon="1.719676">
        <ele>205.9</ele>
        <time>2015-08-25T09:16:48Z</time>
      </trkpt>
      <trkpt lat="43.845420" lon="1.719694">
        <ele>207.1</ele>
        <time>2015-08-25T09:16:52Z</time>
      </trkpt>
      <trkpt lat="43.845316" lon="1.719730">
        <ele>208.2</ele>
        <time>2015-08-25T09:16:56Z</time>
      </trkpt>
      <trkpt lat="43.845219" lon="1.719771">
        <ele>209.7</ele>
        <time>2015-08-25T09:17:00Z</time>
      </trkpt>
      <trkpt lat="43.845124" lon="1.719826">
        <ele>210.9</ele>
        <time>2015-08-25T09:17:04Z</time>
      </trkpt>
      <trkpt lat="43.845028" lon="1.719908">
        <ele>212.6</ele>
        <time>2015-08-25T09:17:09Z</time>
      </trkpt>
      <trkpt lat="43.844937" lon="1.719990">
        <ele>212.3</ele>
        <time>2015-08-25T09:17:13Z</time>
      </trkpt>
      <trkpt lat="43.844860" lon="1.720074">
        <ele>211.7</ele>
        <time>2015-08-25T09:17:16Z</time>
      </trkpt>
      <trkpt lat="43.844752" lon="1.720187">
        <ele>210.3</ele>
        <time>2015-08-25T09:17:19Z</time>
      </trkpt>
      <trkpt lat="43.844677" lon="1.720283">
        <ele>209.5</ele>
        <time>2015-08-25T09:17:21Z</time>
      </trkpt>
      <trkpt lat="43.844602" lon="1.720380">
        <ele>208.9</ele>
        <time>2015-08-25T09:17:23Z</time>
      </trkpt>
      <trkpt lat="43.844519" lon="1.720481">
        <ele>208.6</ele>
        <time>2015-08-25T09:17:25Z</time>
      </trkpt>
      <trkpt lat="43.844434" lon="1.720596">
        <ele>207.7</ele>
        <time>2015-08-25T09:17:27Z</time>
      </trkpt>
      <trkpt lat="43.844354" lon="1.720717">
        <ele>207.2</ele>
        <time>2015-08-25T09:17:29Z</time>
      </trkpt>
      <trkpt lat="43.844276" lon="1.720837">
        <ele>206.7</ele>
        <time>2015-08-25T09:17:31Z</time>
      </trkpt>
      <trkpt lat="43.844209" lon="1.720948">
        <ele>205.7</ele>
        <time>2015-08-25T09:17:33Z</time>
      </trkpt>
      <trkpt lat="43.844128" lon="1.721090">
        <ele>204.9</ele>
        <time>2015-08-25T09:17:36Z</time>
      </trkpt>
      <trkpt lat="43.844037" lon="1.721229">
        <ele>204.1</ele>
        <time>2015-08-25T09:17:39Z</time>
      </trkpt>
      <trkpt lat="43.843977" lon="1.721323">
        <ele>203.9</ele>
        <time>2015-08-25T09:17:41Z</time>
      </trkpt>
      <trkpt lat="43.843908" lon="1.721418">
        <ele>203.6</ele>
        <time>2015-08-25T09:17:43Z</time>
      </trkpt>
      <trkpt lat="43.843835" lon="1.721505">
        <ele>203.3</ele>
        <time>2015-08-25T09:17:45Z</time>
      </trkpt>
      <trkpt lat="43.843760" lon="1.721586">
        <ele>203.5</ele>
        <time>2015-08-25T09:17:47Z</time>
      </trkpt>
      <trkpt lat="43.843685" lon="1.721666">
        <ele>203.7</ele>
        <time>2015-08-25T09:17:49Z</time>
      </trkpt>
      <trkpt lat="43.843615" lon="1.721741">
        <ele>203.1</ele>
        <time>2015-08-25T09:17:51Z</time>
      </trkpt>
      <trkpt lat="43.843516" lon="1.721847">
        <ele>203.2</ele>
        <time>2015-08-25T09:17:54Z</time>
      </trkpt>
      <trkpt lat="43.843412" lon="1.721955">
        <ele>203.7</ele>
        <time>2015-08-25T09:17:57Z</time>
      </trkpt>
      <trkpt lat="43.843304" lon="1.722069">
        <ele>203.3</ele>
        <time>2015-08-25T09:18:00Z</time>
      </trkpt>
      <trkpt lat="43.843200" lon="1.722176">
        <ele>203.4</ele>
        <time>2015-08-25T09:18:03Z</time>
      </trkpt>
      <trkpt lat="43.843110" lon="1.722266">
        <ele>203.5</ele>
        <time>2015-08-25T09:18:06Z</time>
      </trkpt>
      <trkpt lat="43.843026" lon="1.722346">
        <ele>203.7</ele>
        <time>2015-08-25T09:18:09Z</time>
      </trkpt>
      <trkpt lat="43.842950" lon="1.722413">
        <ele>204.4</ele>
        <time>2015-08-25T09:18:12Z</time>
      </trkpt>
      <trkpt lat="43.842872" lon="1.722484">
        <ele>204.3</ele>
        <time>2015-08-25T09:18:15Z</time>
      </trkpt>
      <trkpt lat="43.842773" lon="1.722566">
        <ele>204.2</ele>
        <time>2015-08-25T09:18:19Z</time>
      </trkpt>
      <trkpt lat="43.842683" lon="1.722616">
        <ele>203.2</ele>
        <time>2015-08-25T09:18:22Z</time>
      </trkpt>
      <trkpt lat="43.842575" lon="1.722687">
        <ele>202.1</ele>
        <time>2015-08-25T09:18:26Z</time>
      </trkpt>
      <trkpt lat="43.842473" lon="1.722749">
        <ele>200.9</ele>
        <time>2015-08-25T09:18:30Z</time>
      </trkpt>
      <trkpt lat="43.842370" lon="1.722806">
        <ele>200.8</ele>
        <time>2015-08-25T09:18:34Z</time>
      </trkpt>
      <trkpt lat="43.842255" lon="1.722869">
        <ele>200.4</ele>
        <time>2015-08-25T09:18:38Z</time>
      </trkpt>
      <trkpt lat="43.842163" lon="1.722926">
        <ele>198.6</ele>
        <time>2015-08-25T09:18:41Z</time>
      </trkpt>
      <trkpt lat="43.842055" lon="1.722983">
        <ele>196.6</ele>
        <time>2015-08-25T09:18:45Z</time>
      </trkpt>
      <trkpt lat="43.841961" lon="1.723034">
        <ele>195.1</ele>
        <time>2015-08-25T09:18:48Z</time>
      </trkpt>
      <trkpt lat="43.841858" lon="1.723093">
        <ele>194.5</ele>
        <time>2015-08-25T09:18:51Z</time>
      </trkpt>
      <trkpt lat="43.841753" lon="1.723139">
        <ele>192.9</ele>
        <time>2015-08-25T09:18:54Z</time>
      </trkpt>
      <trkpt lat="43.841645" lon="1.723161">
        <ele>191.2</ele>
        <time>2015-08-25T09:18:57Z</time>
      </trkpt>
      <trkpt lat="43.841517" lon="1.723178">
        <ele>189.1</ele>
        <time>2015-08-25T09:19:00Z</time>
      </trkpt>
      <trkpt lat="43.841426" lon="1.723187">
        <ele>186.8</ele>
        <time>2015-08-25T09:19:02Z</time>
      </trkpt>
      <trkpt lat="43.841326" lon="1.723175">
        <ele>185.2</ele>
        <time>2015-08-25T09:19:04Z</time>
      </trkpt>
      <trkpt lat="43.841223" lon="1.723160">
        <ele>184.3</ele>
        <time>2015-08-25T09:19:06Z</time>
      </trkpt>
      <trkpt lat="43.841113" lon="1.723160">
        <ele>183.4</ele>
        <time>2015-08-25T09:19:08Z</time>
      </trkpt>
      <trkpt lat="43.841003" lon="1.723187">
        <ele>183.1</ele>
        <time>2015-08-25T09:19:10Z</time>
      </trkpt>
      <trkpt lat="43.840940" lon="1.723182">
        <ele>183.8</ele>
        <time>2015-08-25T09:19:21Z</time>
      </trkpt>
      <trkpt lat="43.840826" lon="1.723182">
        <ele>183.1</ele>
        <time>2015-08-25T09:19:33Z</time>
      </trkpt>
      <trkpt lat="43.840717" lon="1.723226">
        <ele>182.9</ele>
        <time>2015-08-25T09:19:36Z</time>
      </trkpt>
      <trkpt lat="43.840616" lon="1.723288">
        <ele>182.1</ele>
        <time>2015-08-25T09:19:39Z</time>
      </trkpt>
      <trkpt lat="43.840553" lon="1.723406">
        <ele>180.8</ele>
        <time>2015-08-25T09:19:43Z</time>
      </trkpt>
      <trkpt lat="43.840571" lon="1.723536">
        <ele>178.6</ele>
        <time>2015-08-25T09:19:47Z</time>
      </trkpt>
      <trkpt lat="43.840664" lon="1.723645">
        <ele>176.0</ele>
        <time>2015-08-25T09:19:51Z</time>
      </trkpt>
      <trkpt lat="43.840765" lon="1.723735">
        <ele>174.4</ele>
        <time>2015-08-25T09:19:54Z</time>
      </trkpt>
      <trkpt lat="43.840805" lon="1.723874">
        <ele>173.8</ele>
        <time>2015-08-25T09:19:57Z</time>
      </trkpt>
      <trkpt lat="43.840774" lon="1.723968">
        <ele>173.6</ele>
        <time>2015-08-25T09:20:02Z</time>
      </trkpt>
      <trkpt lat="43.840770" lon="1.724000">
        <ele>174.5</ele>
        <time>2015-08-25T09:21:02Z</time>
      </trkpt>
      <trkpt lat="43.840779" lon="1.723955">
        <ele>173.6</ele>
        <time>2015-08-25T09:23:41Z</time>
      </trkpt>
      <trkpt lat="43.840743" lon="1.724066">
        <ele>172.3</ele>
        <time>2015-08-25T09:24:01Z</time>
      </trkpt>
      <trkpt lat="43.840688" lon="1.724164">
        <ele>171.2</ele>
        <time>2015-08-25T09:24:11Z</time>
      </trkpt>
      <trkpt lat="43.840632" lon="1.724293">
        <ele>169.5</ele>
        <time>2015-08-25T09:24:15Z</time>
      </trkpt>
      <trkpt lat="43.840583" lon="1.724420">
        <ele>168.0</ele>
        <time>2015-08-25T09:24:18Z</time>
      </trkpt>
      <trkpt lat="43.840537" lon="1.724551">
        <ele>166.2</ele>
        <time>2015-08-25T09:24:21Z</time>
      </trkpt>
      <trkpt lat="43.840494" lon="1.724690">
        <ele>164.6</ele>
        <time>2015-08-25T09:24:24Z</time>
      </trkpt>
      <trkpt lat="43.840451" lon="1.724814">
        <ele>162.5</ele>
        <time>2015-08-25T09:24:27Z</time>
      </trkpt>
      <trkpt lat="43.840421" lon="1.724939">
        <ele>159.3</ele>
        <time>2015-08-25T09:24:30Z</time>
      </trkpt>
      <trkpt lat="43.840391" lon="1.725099">
        <ele>155.9</ele>
        <time>2015-08-25T09:24:34Z</time>
      </trkpt>
      <trkpt lat="43.840347" lon="1.725229">
        <ele>153.6</ele>
        <time>2015-08-25T09:24:37Z</time>
      </trkpt>
      <trkpt lat="43.840300" lon="1.725373">
        <ele>151.3</ele>
        <time>2015-08-25T09:24:40Z</time>
      </trkpt>
      <trkpt lat="43.840259" lon="1.725504">
        <ele>149.2</ele>
        <time>2015-08-25T09:24:43Z</time>
      </trkpt>
      <trkpt lat="43.840221" lon="1.725615">
        <ele>147.4</ele>
        <time>2015-08-25T09:24:46Z</time>
      </trkpt>
      <trkpt lat="43.840178" lon="1.725755">
        <ele>144.7</ele>
        <time>2015-08-25T09:24:50Z</time>
      </trkpt>
      <trkpt lat="43.840134" lon="1.725895">
        <ele>142.4</ele>
        <time>2015-08-25T09:24:54Z</time>
      </trkpt>
      <trkpt lat="43.840087" lon="1.726022">
        <ele>139.6</ele>
        <time>2015-08-25T09:24:58Z</time>
      </trkpt>
      <trkpt lat="43.840039" lon="1.726177">
        <ele>138.1</ele>
        <time>2015-08-25T09:25:02Z</time>
      </trkpt>
      <trkpt lat="43.839991" lon="1.726309">
        <ele>137.5</ele>
        <time>2015-08-25T09:25:05Z</time>
      </trkpt>
      <trkpt lat="43.839940" lon="1.726458">
        <ele>135.4</ele>
        <time>2015-08-25T09:25:08Z</time>
      </trkpt>
      <trkpt lat="43.839885" lon="1.726616">
        <ele>133.7</ele>
        <time>2015-08-25T09:25:11Z</time>
      </trkpt>
      <trkpt lat="43.839829" lon="1.726782">
        <ele>133.0</ele>
        <time>2015-08-25T09:25:14Z</time>
      </trkpt>
      <trkpt lat="43.839772" lon="1.726942">
        <ele>132.6</ele>
        <time>2015-08-25T09:25:17Z</time>
      </trkpt>
      <trkpt lat="43.839720" lon="1.727091">
        <ele>131.9</ele>
        <time>2015-08-25T09:25:20Z</time>
      </trkpt>
      <trkpt lat="43.839672" lon="1.727228">
        <ele>131.3</ele>
        <time>2015-08-25T09:25:23Z</time>
      </trkpt>
      <trkpt lat="43.839631" lon="1.727347">
        <ele>130.4</ele>
        <time>2015-08-25T09:25:26Z</time>
      </trkpt>
      <trkpt lat="43.839533" lon="1.727341">
        <ele>129.0</ele>
        <time>2015-08-25T09:25:31Z</time>
      </trkpt>
      <trkpt lat="43.839432" lon="1.727292">
        <ele>128.4</ele>
        <time>2015-08-25T09:25:35Z</time>
      </trkpt>
      <trkpt lat="43.839336" lon="1.727250">
        <ele>128.3</ele>
        <time>2015-08-25T09:25:39Z</time>
      </trkpt>
      <trkpt lat="43.839241" lon="1.727216">
        <ele>128.6</ele>
        <time>2015-08-25T09:25:43Z</time>
      </trkpt>
      <trkpt lat="43.839139" lon="1.727193">
        <ele>128.5</ele>
        <time>2015-08-25T09:25:47Z</time>
      </trkpt>
      <trkpt lat="43.839039" lon="1.727157">
        <ele>128.5</ele>
        <time>2015-08-25T09:25:51Z</time>
      </trkpt>
      <trkpt lat="43.838928" lon="1.727145">
        <ele>128.6</ele>
        <time>2015-08-25T09:25:55Z</time>
      </trkpt>
      <trkpt lat="43.838843" lon="1.727119">
        <ele>128.5</ele>
        <time>2015-08-25T09:25:58Z</time>
      </trkpt>
      <trkpt lat="43.838734" lon="1.727082">
        <ele>128.2</ele>
        <time>2015-08-25T09:26:02Z</time>
      </trkpt>
      <trkpt lat="43.838625" lon="1.727033">
        <ele>128.5</ele>
        <time>2015-08-25T09:26:06Z</time>
      </trkpt>
      <trkpt lat="43.838532" lon="1.726971">
        <ele>128.1</ele>
        <time>2015-08-25T09:26:10Z</time>
      </trkpt>
      <trkpt lat="43.838439" lon="1.726921">
        <ele>128.6</ele>
        <time>2015-08-25T09:26:14Z</time>
      </trkpt>
      <trkpt lat="43.838349" lon="1.726871">
        <ele>129.4</ele>
        <time>2015-08-25T09:26:18Z</time>
      </trkpt>
      <trkpt lat="43.838260" lon="1.726811">
        <ele>129.2</ele>
        <time>2015-08-25T09:26:22Z</time>
      </trkpt>
      <trkpt lat="43.838171" lon="1.726760">
        <ele>128.9</ele>
        <time>2015-08-25T09:26:26Z</time>
      </trkpt>
      <trkpt lat="43.838089" lon="1.726695">
        <ele>129.5</ele>
        <time>2015-08-25T09:26:30Z</time>
      </trkpt>
      <trkpt lat="43.837997" lon="1.726632">
        <ele>129.9</ele>
        <time>2015-08-25T09:26:34Z</time>
      </trkpt>
      <trkpt lat="43.837902" lon="1.726601">
        <ele>129.9</ele>
        <time>2015-08-25T09:26:38Z</time>
      </trkpt>
      <trkpt lat="43.837798" lon="1.726541">
        <ele>130.7</ele>
        <time>2015-08-25T09:26:43Z</time>
      </trkpt>
      <trkpt lat="43.837710" lon="1.726486">
        <ele>130.6</ele>
        <time>2015-08-25T09:26:47Z</time>
      </trkpt>
      <trkpt lat="43.837615" lon="1.726459">
        <ele>130.6</ele>
        <time>2015-08-25T09:26:51Z</time>
      </trkpt>
      <trkpt lat="43.837527" lon="1.726433">
        <ele>130.4</ele>
        <time>2015-08-25T09:26:55Z</time>
      </trkpt>
      <trkpt lat="43.837410" lon="1.726415">
        <ele>131.1</ele>
        <time>2015-08-25T09:27:00Z</time>
      </trkpt>
      <trkpt lat="43.837315" lon="1.726379">
        <ele>131.5</ele>
        <time>2015-08-25T09:27:04Z</time>
      </trkpt>
      <trkpt lat="43.837213" lon="1.726348">
        <ele>132.7</ele>
        <time>2015-08-25T09:27:08Z</time>
      </trkpt>
      <trkpt lat="43.837107" lon="1.726309">
        <ele>133.2</ele>
        <time>2015-08-25T09:27:12Z</time>
      </trkpt>
      <trkpt lat="43.837009" lon="1.726264">
        <ele>133.4</ele>
        <time>2015-08-25T09:27:16Z</time>
      </trkpt>
      <trkpt lat="43.836917" lon="1.726225">
        <ele>132.6</ele>
        <time>2015-08-25T09:27:20Z</time>
      </trkpt>
      <trkpt lat="43.836809" lon="1.726169">
        <ele>132.9</ele>
        <time>2015-08-25T09:27:24Z</time>
      </trkpt>
      <trkpt lat="43.836721" lon="1.726116">
        <ele>132.9</ele>
        <time>2015-08-25T09:27:27Z</time>
      </trkpt>
      <trkpt lat="43.836621" lon="1.726060">
        <ele>132.1</ele>
        <time>2015-08-25T09:27:30Z</time>
      </trkpt>
      <trkpt lat="43.836523" lon="1.725998">
        <ele>132.0</ele>
        <time>2015-08-25T09:27:33Z</time>
      </trkpt>
      <trkpt lat="43.836420" lon="1.725952">
        <ele>131.8</ele>
        <time>2015-08-25T09:27:36Z</time>
      </trkpt>
      <trkpt lat="43.836317" lon="1.725910">
        <ele>131.2</ele>
        <time>2015-08-25T09:27:39Z</time>
      </trkpt>
      <trkpt lat="43.836206" lon="1.725867">
        <ele>130.9</ele>
        <time>2015-08-25T09:27:42Z</time>
      </trkpt>
      <trkpt lat="43.836094" lon="1.725837">
        <ele>130.6</ele>
        <time>2015-08-25T09:27:45Z</time>
      </trkpt>
      <trkpt lat="43.835987" lon="1.725804">
        <ele>130.3</ele>
        <time>2015-08-25T09:27:48Z</time>
      </trkpt>
      <trkpt lat="43.835881" lon="1.725765">
        <ele>130.0</ele>
        <time>2015-08-25T09:27:51Z</time>
      </trkpt>
      <trkpt lat="43.835770" lon="1.725732">
        <ele>129.1</ele>
        <time>2015-08-25T09:27:54Z</time>
      </trkpt>
      <trkpt lat="43.835659" lon="1.725689">
        <ele>128.4</ele>
        <time>2015-08-25T09:27:57Z</time>
      </trkpt>
      <trkpt lat="43.835540" lon="1.725622">
        <ele>128.0</ele>
        <time>2015-08-25T09:28:00Z</time>
      </trkpt>
      <trkpt lat="43.835428" lon="1.725543">
        <ele>127.8</ele>
        <time>2015-08-25T09:28:03Z</time>
      </trkpt>
      <trkpt lat="43.835324" lon="1.725469">
        <ele>128.0</ele>
        <time>2015-08-25T09:28:06Z</time>
      </trkpt>
      <trkpt lat="43.835231" lon="1.725397">
        <ele>128.3</ele>
        <time>2015-08-25T09:28:09Z</time>
      </trkpt>
      <trkpt lat="43.835139" lon="1.725323">
        <ele>127.6</ele>
        <time>2015-08-25T09:28:12Z</time>
      </trkpt>
      <trkpt lat="43.835036" lon="1.725240">
        <ele>127.4</ele>
        <time>2015-08-25T09:28:15Z</time>
      </trkpt>
      <trkpt lat="43.834936" lon="1.725157">
        <ele>127.3</ele>
        <time>2015-08-25T09:28:18Z</time>
      </trkpt>
      <trkpt lat="43.834841" lon="1.725068">
        <ele>127.3</ele>
        <time>2015-08-25T09:28:21Z</time>
      </trkpt>
      <trkpt lat="43.834756" lon="1.724987">
        <ele>127.4</ele>
        <time>2015-08-25T09:28:24Z</time>
      </trkpt>
      <trkpt lat="43.834655" lon="1.724911">
        <ele>127.7</ele>
        <time>2015-08-25T09:28:27Z</time>
      </trkpt>
      <trkpt lat="43.834545" lon="1.724826">
        <ele>127.8</ele>
        <time>2015-08-25T09:28:30Z</time>
      </trkpt>
      <trkpt lat="43.834435" lon="1.724726">
        <ele>127.6</ele>
        <time>2015-08-25T09:28:33Z</time>
      </trkpt>
      <trkpt lat="43.834354" lon="1.724665">
        <ele>127.6</ele>
        <time>2015-08-25T09:28:35Z</time>
      </trkpt>
      <trkpt lat="43.834271" lon="1.724604">
        <ele>127.6</ele>
        <time>2015-08-25T09:28:37Z</time>
      </trkpt>
      <trkpt lat="43.834183" lon="1.724541">
        <ele>127.6</ele>
        <time>2015-08-25T09:28:39Z</time>
      </trkpt>
      <trkpt lat="43.834093" lon="1.724469">
        <ele>127.3</ele>
        <time>2015-08-25T09:28:41Z</time>
      </trkpt>
      <trkpt lat="43.834001" lon="1.724399">
        <ele>127.3</ele>
        <time>2015-08-25T09:28:43Z</time>
      </trkpt>
      <trkpt lat="43.833903" lon="1.724333">
        <ele>127.1</ele>
        <time>2015-08-25T09:28:45Z</time>
      </trkpt>
      <trkpt lat="43.833808" lon="1.724265">
        <ele>127.1</ele>
        <time>2015-08-25T09:28:47Z</time>
      </trkpt>
      <trkpt lat="43.833712" lon="1.724202">
        <ele>126.9</ele>
        <time>2015-08-25T09:28:49Z</time>
      </trkpt>
      <trkpt lat="43.833619" lon="1.724150">
        <ele>126.6</ele>
        <time>2015-08-25T09:28:51Z</time>
      </trkpt>
      <trkpt lat="43.833532" lon="1.724100">
        <ele>126.5</ele>
        <time>2015-08-25T09:28:53Z</time>
      </trkpt>
      <trkpt lat="43.833426" lon="1.724048">
        <ele>127.0</ele>
        <time>2015-08-25T09:28:56Z</time>
      </trkpt>
      <trkpt lat="43.833354" lon="1.724017">
        <ele>129.8</ele>
        <time>2015-08-25T09:29:56Z</time>
      </trkpt>
      <trkpt lat="43.833378" lon="1.724159">
        <ele>129.9</ele>
        <time>2015-08-25T09:30:02Z</time>
      </trkpt>
      <trkpt lat="43.833435" lon="1.724269">
        <ele>130.0</ele>
        <time>2015-08-25T09:30:05Z</time>
      </trkpt>
      <trkpt lat="43.833511" lon="1.724326">
        <ele>130.1</ele>
        <time>2015-08-25T09:30:17Z</time>
      </trkpt>
      <trkpt lat="43.833522" lon="1.724306">
        <ele>131.5</ele>
        <time>2015-08-25T09:30:41Z</time>
      </trkpt>
    </trkseg>
  </trk>
</gpx>

